﻿<?xml version="1.0" encoding="UTF-8" standalone="no" ?>
<gpx xmlns="http://www.topografix.com/GPX/1/1" creator="CompeGPS" version="1.1" xmlns:xsi="http://www.w3.org/2001/XMLSchema-instance" xsi:schemaLocation="http://www.topografix.com/GPX/1/1 http://www.topografix.com/GPX/1/1/gpx.xsd http://www.garmin.com/xmlschemas/GpxExtensions/v3 http://www.garmin.com/xmlschemas/GpxExtensionsv3.xsd http://www.garmin.com/xmlschemas/TrackPointExtension/v1 http://www.garmin.com/xmlschemas/TrackPointExtensionv1.xsd" xmlns:gpxtpx="http://www.garmin.com/xmlschemas/TrackPointExtension/v1">
  <metadata>
    <link href="http://www.compegps.com">
      <text>CompeGPS TEAM, SL</text>
    </link>
    <time>2019-06-16T19:23:57Z</time>
    <bounds maxlat="43.412994" maxlon="1.313196" minlat="43.386974" minlon="1.299129"/>
  </metadata>
  <trk>
    <name>aouach</name>
    <userMyTwoNav></userMyTwoNav>
    <serialNumber></serialNumber>
    <trkseg>
      <trkpt lat="43.411265" lon="1.309426">
        <ele>167.1</ele>
        <time>2019-06-16T13:06:37Z</time>
      </trkpt>
      <trkpt lat="43.411153" lon="1.309428">
        <ele>167.2</ele>
        <time>2019-06-16T13:06:49Z</time>
      </trkpt>
      <trkpt lat="43.411062" lon="1.309403">
        <ele>167.1</ele>
        <time>2019-06-16T13:06:58Z</time>
      </trkpt>
      <trkpt lat="43.410985" lon="1.309358">
        <ele>166.9</ele>
        <time>2019-06-16T13:07:06Z</time>
      </trkpt>
      <trkpt lat="43.410915" lon="1.309309">
        <ele>166.6</ele>
        <time>2019-06-16T13:07:14Z</time>
      </trkpt>
      <trkpt lat="43.410827" lon="1.309281">
        <ele>166.3</ele>
        <time>2019-06-16T13:07:23Z</time>
      </trkpt>
      <trkpt lat="43.410770" lon="1.309377">
        <ele>166.5</ele>
        <time>2019-06-16T13:07:32Z</time>
      </trkpt>
      <trkpt lat="43.410759" lon="1.309507">
        <ele>166.9</ele>
        <time>2019-06-16T13:07:41Z</time>
      </trkpt>
      <trkpt lat="43.410731" lon="1.309632">
        <ele>167.1</ele>
        <time>2019-06-16T13:07:49Z</time>
      </trkpt>
      <trkpt lat="43.410673" lon="1.309730">
        <ele>167.6</ele>
        <time>2019-06-16T13:07:59Z</time>
      </trkpt>
      <trkpt lat="43.410579" lon="1.309725">
        <ele>167.8</ele>
        <time>2019-06-16T13:08:10Z</time>
      </trkpt>
      <trkpt lat="43.410487" lon="1.309716">
        <ele>168.1</ele>
        <time>2019-06-16T13:08:19Z</time>
      </trkpt>
      <trkpt lat="43.410396" lon="1.309703">
        <ele>168.0</ele>
        <time>2019-06-16T13:08:29Z</time>
      </trkpt>
      <trkpt lat="43.410302" lon="1.309693">
        <ele>168.1</ele>
        <time>2019-06-16T13:08:38Z</time>
      </trkpt>
      <trkpt lat="43.410201" lon="1.309698">
        <ele>168.3</ele>
        <time>2019-06-16T13:08:47Z</time>
      </trkpt>
      <trkpt lat="43.410109" lon="1.309692">
        <ele>168.1</ele>
        <time>2019-06-16T13:08:55Z</time>
      </trkpt>
      <trkpt lat="43.410005" lon="1.309676">
        <ele>168.2</ele>
        <time>2019-06-16T13:09:04Z</time>
      </trkpt>
      <trkpt lat="43.409914" lon="1.309684">
        <ele>168.3</ele>
        <time>2019-06-16T13:09:12Z</time>
      </trkpt>
      <trkpt lat="43.409832" lon="1.309687">
        <ele>168.5</ele>
        <time>2019-06-16T13:09:19Z</time>
      </trkpt>
      <trkpt lat="43.409739" lon="1.309689">
        <ele>168.6</ele>
        <time>2019-06-16T13:09:27Z</time>
      </trkpt>
      <trkpt lat="43.409659" lon="1.309674">
        <ele>168.6</ele>
        <time>2019-06-16T13:09:37Z</time>
      </trkpt>
      <trkpt lat="43.409551" lon="1.309686">
        <ele>168.9</ele>
        <time>2019-06-16T13:09:46Z</time>
      </trkpt>
      <trkpt lat="43.409458" lon="1.309720">
        <ele>169.2</ele>
        <time>2019-06-16T13:09:54Z</time>
      </trkpt>
      <trkpt lat="43.409365" lon="1.309703">
        <ele>169.3</ele>
        <time>2019-06-16T13:10:03Z</time>
      </trkpt>
      <trkpt lat="43.409274" lon="1.309722">
        <ele>169.4</ele>
        <time>2019-06-16T13:10:11Z</time>
      </trkpt>
      <trkpt lat="43.409168" lon="1.309736">
        <ele>169.5</ele>
        <time>2019-06-16T13:10:19Z</time>
      </trkpt>
      <trkpt lat="43.409078" lon="1.309747">
        <ele>169.8</ele>
        <time>2019-06-16T13:10:27Z</time>
      </trkpt>
      <trkpt lat="43.408992" lon="1.309741">
        <ele>170.1</ele>
        <time>2019-06-16T13:10:35Z</time>
      </trkpt>
      <trkpt lat="43.408895" lon="1.309739">
        <ele>170.1</ele>
        <time>2019-06-16T13:10:43Z</time>
      </trkpt>
      <trkpt lat="43.408798" lon="1.309724">
        <ele>170.2</ele>
        <time>2019-06-16T13:10:51Z</time>
      </trkpt>
      <trkpt lat="43.408705" lon="1.309699">
        <ele>170.1</ele>
        <time>2019-06-16T13:10:59Z</time>
      </trkpt>
      <trkpt lat="43.408606" lon="1.309685">
        <ele>170.0</ele>
        <time>2019-06-16T13:11:07Z</time>
      </trkpt>
      <trkpt lat="43.408517" lon="1.309651">
        <ele>170.1</ele>
        <time>2019-06-16T13:11:15Z</time>
      </trkpt>
      <trkpt lat="43.408423" lon="1.309616">
        <ele>170.0</ele>
        <time>2019-06-16T13:11:23Z</time>
      </trkpt>
      <trkpt lat="43.408327" lon="1.309561">
        <ele>169.7</ele>
        <time>2019-06-16T13:11:30Z</time>
      </trkpt>
      <trkpt lat="43.408239" lon="1.309518">
        <ele>169.8</ele>
        <time>2019-06-16T13:11:37Z</time>
      </trkpt>
      <trkpt lat="43.408148" lon="1.309496">
        <ele>169.7</ele>
        <time>2019-06-16T13:11:45Z</time>
      </trkpt>
      <trkpt lat="43.408057" lon="1.309457">
        <ele>169.6</ele>
        <time>2019-06-16T13:11:53Z</time>
      </trkpt>
      <trkpt lat="43.407967" lon="1.309428">
        <ele>169.4</ele>
        <time>2019-06-16T13:12:00Z</time>
      </trkpt>
      <trkpt lat="43.407877" lon="1.309375">
        <ele>169.1</ele>
        <time>2019-06-16T13:12:08Z</time>
      </trkpt>
      <trkpt lat="43.407789" lon="1.309354">
        <ele>169.0</ele>
        <time>2019-06-16T13:12:16Z</time>
      </trkpt>
      <trkpt lat="43.407690" lon="1.309341">
        <ele>168.8</ele>
        <time>2019-06-16T13:12:24Z</time>
      </trkpt>
      <trkpt lat="43.407587" lon="1.309342">
        <ele>168.9</ele>
        <time>2019-06-16T13:12:31Z</time>
      </trkpt>
      <trkpt lat="43.407500" lon="1.309361">
        <ele>169.0</ele>
        <time>2019-06-16T13:12:38Z</time>
      </trkpt>
      <trkpt lat="43.407415" lon="1.309383">
        <ele>168.9</ele>
        <time>2019-06-16T13:12:45Z</time>
      </trkpt>
      <trkpt lat="43.407321" lon="1.309407">
        <ele>168.8</ele>
        <time>2019-06-16T13:12:53Z</time>
      </trkpt>
      <trkpt lat="43.407227" lon="1.309397">
        <ele>169.2</ele>
        <time>2019-06-16T13:13:01Z</time>
      </trkpt>
      <trkpt lat="43.407137" lon="1.309396">
        <ele>169.5</ele>
        <time>2019-06-16T13:13:09Z</time>
      </trkpt>
      <trkpt lat="43.407029" lon="1.309405">
        <ele>169.7</ele>
        <time>2019-06-16T13:13:19Z</time>
      </trkpt>
      <trkpt lat="43.406919" lon="1.309415">
        <ele>170.1</ele>
        <time>2019-06-16T13:13:28Z</time>
      </trkpt>
      <trkpt lat="43.406820" lon="1.309411">
        <ele>170.2</ele>
        <time>2019-06-16T13:13:36Z</time>
      </trkpt>
      <trkpt lat="43.406721" lon="1.309415">
        <ele>170.6</ele>
        <time>2019-06-16T13:13:49Z</time>
      </trkpt>
      <trkpt lat="43.406625" lon="1.309429">
        <ele>170.5</ele>
        <time>2019-06-16T13:13:58Z</time>
      </trkpt>
      <trkpt lat="43.406528" lon="1.309430">
        <ele>170.8</ele>
        <time>2019-06-16T13:14:06Z</time>
      </trkpt>
      <trkpt lat="43.406424" lon="1.309445">
        <ele>171.0</ele>
        <time>2019-06-16T13:14:15Z</time>
      </trkpt>
      <trkpt lat="43.406343" lon="1.309511">
        <ele>171.1</ele>
        <time>2019-06-16T13:14:25Z</time>
      </trkpt>
      <trkpt lat="43.406309" lon="1.309648">
        <ele>171.0</ele>
        <time>2019-06-16T13:14:35Z</time>
      </trkpt>
      <trkpt lat="43.406273" lon="1.309782">
        <ele>171.3</ele>
        <time>2019-06-16T13:14:43Z</time>
      </trkpt>
      <trkpt lat="43.406227" lon="1.309910">
        <ele>171.6</ele>
        <time>2019-06-16T13:14:52Z</time>
      </trkpt>
      <trkpt lat="43.406184" lon="1.310029">
        <ele>171.9</ele>
        <time>2019-06-16T13:15:01Z</time>
      </trkpt>
      <trkpt lat="43.406145" lon="1.310164">
        <ele>172.1</ele>
        <time>2019-06-16T13:15:12Z</time>
      </trkpt>
      <trkpt lat="43.406134" lon="1.310297">
        <ele>172.4</ele>
        <time>2019-06-16T13:15:21Z</time>
      </trkpt>
      <trkpt lat="43.406128" lon="1.310443">
        <ele>172.9</ele>
        <time>2019-06-16T13:15:31Z</time>
      </trkpt>
      <trkpt lat="43.406138" lon="1.310593">
        <ele>173.2</ele>
        <time>2019-06-16T13:15:42Z</time>
      </trkpt>
      <trkpt lat="43.406145" lon="1.310739">
        <ele>173.6</ele>
        <time>2019-06-16T13:15:53Z</time>
      </trkpt>
      <trkpt lat="43.406107" lon="1.310742">
        <ele>173.5</ele>
        <time>2019-06-16T13:16:19Z</time>
      </trkpt>
      <trkpt lat="43.406069" lon="1.310902">
        <ele>172.0</ele>
        <time>2019-06-16T13:16:31Z</time>
      </trkpt>
      <trkpt lat="43.405981" lon="1.311014">
        <ele>170.6</ele>
        <time>2019-06-16T13:16:46Z</time>
      </trkpt>
      <trkpt lat="43.405915" lon="1.310931">
        <ele>170.7</ele>
        <time>2019-06-16T13:16:59Z</time>
      </trkpt>
      <trkpt lat="43.405923" lon="1.310779">
        <ele>171.4</ele>
        <time>2019-06-16T13:17:12Z</time>
      </trkpt>
      <trkpt lat="43.405895" lon="1.310615">
        <ele>172.6</ele>
        <time>2019-06-16T13:17:26Z</time>
      </trkpt>
      <trkpt lat="43.405824" lon="1.310438">
        <ele>174.9</ele>
        <time>2019-06-16T13:17:40Z</time>
      </trkpt>
      <trkpt lat="43.405696" lon="1.310403">
        <ele>177.0</ele>
        <time>2019-06-16T13:17:54Z</time>
      </trkpt>
      <trkpt lat="43.405557" lon="1.310385">
        <ele>178.4</ele>
        <time>2019-06-16T13:18:07Z</time>
      </trkpt>
      <trkpt lat="43.405441" lon="1.310370">
        <ele>179.9</ele>
        <time>2019-06-16T13:18:19Z</time>
      </trkpt>
      <trkpt lat="43.405351" lon="1.310394">
        <ele>181.7</ele>
        <time>2019-06-16T13:18:35Z</time>
      </trkpt>
      <trkpt lat="43.405215" lon="1.310404">
        <ele>183.7</ele>
        <time>2019-06-16T13:18:49Z</time>
      </trkpt>
      <trkpt lat="43.405090" lon="1.310375">
        <ele>184.9</ele>
        <time>2019-06-16T13:19:03Z</time>
      </trkpt>
      <trkpt lat="43.405003" lon="1.310364">
        <ele>187.1</ele>
        <time>2019-06-16T13:19:17Z</time>
      </trkpt>
      <trkpt lat="43.404872" lon="1.310369">
        <ele>189.1</ele>
        <time>2019-06-16T13:19:30Z</time>
      </trkpt>
      <trkpt lat="43.404775" lon="1.310352">
        <ele>191.6</ele>
        <time>2019-06-16T13:19:43Z</time>
      </trkpt>
      <trkpt lat="43.404661" lon="1.310363">
        <ele>194.2</ele>
        <time>2019-06-16T13:19:59Z</time>
      </trkpt>
      <trkpt lat="43.404552" lon="1.310319">
        <ele>195.6</ele>
        <time>2019-06-16T13:20:09Z</time>
      </trkpt>
      <trkpt lat="43.404447" lon="1.310297">
        <ele>196.8</ele>
        <time>2019-06-16T13:20:20Z</time>
      </trkpt>
      <trkpt lat="43.404355" lon="1.310318">
        <ele>199.2</ele>
        <time>2019-06-16T13:20:33Z</time>
      </trkpt>
      <trkpt lat="43.404261" lon="1.310364">
        <ele>201.6</ele>
        <time>2019-06-16T13:20:48Z</time>
      </trkpt>
      <trkpt lat="43.404316" lon="1.310424">
        <ele>204.6</ele>
        <time>2019-06-16T13:21:03Z</time>
      </trkpt>
      <trkpt lat="43.404398" lon="1.310446">
        <ele>207.0</ele>
        <time>2019-06-16T13:21:19Z</time>
      </trkpt>
      <trkpt lat="43.404476" lon="1.310540">
        <ele>208.7</ele>
        <time>2019-06-16T13:21:34Z</time>
      </trkpt>
      <trkpt lat="43.404538" lon="1.310631">
        <ele>211.9</ele>
        <time>2019-06-16T13:21:51Z</time>
      </trkpt>
      <trkpt lat="43.404443" lon="1.310668">
        <ele>214.0</ele>
        <time>2019-06-16T13:22:07Z</time>
      </trkpt>
      <trkpt lat="43.404335" lon="1.310649">
        <ele>215.6</ele>
        <time>2019-06-16T13:22:27Z</time>
      </trkpt>
      <trkpt lat="43.404218" lon="1.310672">
        <ele>216.9</ele>
        <time>2019-06-16T13:22:41Z</time>
      </trkpt>
      <trkpt lat="43.404098" lon="1.310732">
        <ele>217.9</ele>
        <time>2019-06-16T13:22:57Z</time>
      </trkpt>
      <trkpt lat="43.403995" lon="1.310748">
        <ele>219.1</ele>
        <time>2019-06-16T13:23:11Z</time>
      </trkpt>
      <trkpt lat="43.403879" lon="1.310765">
        <ele>221.7</ele>
        <time>2019-06-16T13:23:25Z</time>
      </trkpt>
      <trkpt lat="43.403769" lon="1.310800">
        <ele>225.0</ele>
        <time>2019-06-16T13:23:41Z</time>
      </trkpt>
      <trkpt lat="43.403686" lon="1.310887">
        <ele>227.9</ele>
        <time>2019-06-16T13:23:56Z</time>
      </trkpt>
      <trkpt lat="43.403598" lon="1.310964">
        <ele>230.6</ele>
        <time>2019-06-16T13:24:24Z</time>
      </trkpt>
      <trkpt lat="43.403526" lon="1.311073">
        <ele>232.1</ele>
        <time>2019-06-16T13:24:35Z</time>
      </trkpt>
      <trkpt lat="43.403468" lon="1.311175">
        <ele>233.5</ele>
        <time>2019-06-16T13:24:46Z</time>
      </trkpt>
      <trkpt lat="43.403410" lon="1.311272">
        <ele>234.5</ele>
        <time>2019-06-16T13:24:58Z</time>
      </trkpt>
      <trkpt lat="43.403452" lon="1.311291">
        <ele>236.6</ele>
        <time>2019-06-16T13:25:14Z</time>
      </trkpt>
      <trkpt lat="43.403532" lon="1.311208">
        <ele>236.9</ele>
        <time>2019-06-16T13:25:30Z</time>
      </trkpt>
      <trkpt lat="43.403609" lon="1.311121">
        <ele>236.6</ele>
        <time>2019-06-16T13:25:41Z</time>
      </trkpt>
      <trkpt lat="43.403687" lon="1.311159">
        <ele>236.5</ele>
        <time>2019-06-16T13:26:03Z</time>
      </trkpt>
      <trkpt lat="43.403680" lon="1.311204">
        <ele>236.5</ele>
        <time>2019-06-16T13:27:17Z</time>
      </trkpt>
      <trkpt lat="43.403713" lon="1.311291">
        <ele>236.7</ele>
        <time>2019-06-16T13:27:30Z</time>
      </trkpt>
      <trkpt lat="43.403669" lon="1.311433">
        <ele>238.3</ele>
        <time>2019-06-16T13:27:47Z</time>
      </trkpt>
      <trkpt lat="43.403645" lon="1.311475">
        <ele>237.7</ele>
        <time>2019-06-16T13:28:07Z</time>
      </trkpt>
      <trkpt lat="43.403556" lon="1.311484">
        <ele>239.2</ele>
        <time>2019-06-16T13:29:40Z</time>
      </trkpt>
      <trkpt lat="43.403448" lon="1.311476">
        <ele>239.2</ele>
        <time>2019-06-16T13:33:23Z</time>
      </trkpt>
      <trkpt lat="43.403344" lon="1.311539">
        <ele>238.3</ele>
        <time>2019-06-16T13:33:36Z</time>
      </trkpt>
      <trkpt lat="43.403283" lon="1.311627">
        <ele>238.4</ele>
        <time>2019-06-16T13:33:48Z</time>
      </trkpt>
      <trkpt lat="43.403199" lon="1.311729">
        <ele>239.0</ele>
        <time>2019-06-16T13:34:01Z</time>
      </trkpt>
      <trkpt lat="43.403125" lon="1.311830">
        <ele>239.6</ele>
        <time>2019-06-16T13:34:13Z</time>
      </trkpt>
      <trkpt lat="43.403053" lon="1.311939">
        <ele>240.6</ele>
        <time>2019-06-16T13:34:25Z</time>
      </trkpt>
      <trkpt lat="43.402987" lon="1.312065">
        <ele>241.4</ele>
        <time>2019-06-16T13:34:36Z</time>
      </trkpt>
      <trkpt lat="43.402932" lon="1.312173">
        <ele>242.0</ele>
        <time>2019-06-16T13:34:46Z</time>
      </trkpt>
      <trkpt lat="43.402856" lon="1.312251">
        <ele>243.0</ele>
        <time>2019-06-16T13:34:57Z</time>
      </trkpt>
      <trkpt lat="43.402777" lon="1.312315">
        <ele>243.7</ele>
        <time>2019-06-16T13:35:07Z</time>
      </trkpt>
      <trkpt lat="43.402694" lon="1.312340">
        <ele>244.5</ele>
        <time>2019-06-16T13:35:16Z</time>
      </trkpt>
      <trkpt lat="43.402599" lon="1.312334">
        <ele>246.0</ele>
        <time>2019-06-16T13:35:26Z</time>
      </trkpt>
      <trkpt lat="43.402503" lon="1.312345">
        <ele>247.6</ele>
        <time>2019-06-16T13:35:37Z</time>
      </trkpt>
      <trkpt lat="43.402407" lon="1.312401">
        <ele>249.4</ele>
        <time>2019-06-16T13:35:49Z</time>
      </trkpt>
      <trkpt lat="43.402335" lon="1.312476">
        <ele>250.8</ele>
        <time>2019-06-16T13:35:59Z</time>
      </trkpt>
      <trkpt lat="43.402259" lon="1.312569">
        <ele>251.9</ele>
        <time>2019-06-16T13:36:09Z</time>
      </trkpt>
      <trkpt lat="43.402180" lon="1.312655">
        <ele>253.3</ele>
        <time>2019-06-16T13:36:19Z</time>
      </trkpt>
      <trkpt lat="43.402100" lon="1.312717">
        <ele>253.9</ele>
        <time>2019-06-16T13:36:27Z</time>
      </trkpt>
      <trkpt lat="43.402015" lon="1.312780">
        <ele>254.5</ele>
        <time>2019-06-16T13:36:36Z</time>
      </trkpt>
      <trkpt lat="43.401916" lon="1.312777">
        <ele>255.0</ele>
        <time>2019-06-16T13:36:46Z</time>
      </trkpt>
      <trkpt lat="43.401807" lon="1.312817">
        <ele>255.1</ele>
        <time>2019-06-16T13:36:55Z</time>
      </trkpt>
      <trkpt lat="43.401703" lon="1.312876">
        <ele>255.5</ele>
        <time>2019-06-16T13:37:05Z</time>
      </trkpt>
      <trkpt lat="43.401606" lon="1.312928">
        <ele>255.9</ele>
        <time>2019-06-16T13:37:15Z</time>
      </trkpt>
      <trkpt lat="43.401506" lon="1.312975">
        <ele>256.2</ele>
        <time>2019-06-16T13:37:24Z</time>
      </trkpt>
      <trkpt lat="43.401413" lon="1.313022">
        <ele>256.6</ele>
        <time>2019-06-16T13:37:33Z</time>
      </trkpt>
      <trkpt lat="43.401303" lon="1.313062">
        <ele>257.0</ele>
        <time>2019-06-16T13:37:43Z</time>
      </trkpt>
      <trkpt lat="43.401198" lon="1.313134">
        <ele>257.8</ele>
        <time>2019-06-16T13:37:53Z</time>
      </trkpt>
      <trkpt lat="43.401111" lon="1.313163">
        <ele>258.8</ele>
        <time>2019-06-16T13:38:03Z</time>
      </trkpt>
      <trkpt lat="43.401021" lon="1.313196">
        <ele>259.5</ele>
        <time>2019-06-16T13:38:15Z</time>
      </trkpt>
      <trkpt lat="43.400914" lon="1.313164">
        <ele>260.8</ele>
        <time>2019-06-16T13:38:30Z</time>
      </trkpt>
      <trkpt lat="43.400836" lon="1.313113">
        <ele>263.0</ele>
        <time>2019-06-16T13:39:44Z</time>
      </trkpt>
      <trkpt lat="43.400733" lon="1.313036">
        <ele>265.2</ele>
        <time>2019-06-16T13:40:02Z</time>
      </trkpt>
      <trkpt lat="43.400646" lon="1.312951">
        <ele>267.2</ele>
        <time>2019-06-16T13:40:16Z</time>
      </trkpt>
      <trkpt lat="43.400573" lon="1.312823">
        <ele>270.0</ele>
        <time>2019-06-16T13:40:33Z</time>
      </trkpt>
      <trkpt lat="43.400451" lon="1.312790">
        <ele>272.5</ele>
        <time>2019-06-16T13:40:50Z</time>
      </trkpt>
      <trkpt lat="43.400324" lon="1.312825">
        <ele>274.3</ele>
        <time>2019-06-16T13:41:05Z</time>
      </trkpt>
      <trkpt lat="43.400190" lon="1.312816">
        <ele>274.5</ele>
        <time>2019-06-16T13:41:20Z</time>
      </trkpt>
      <trkpt lat="43.400082" lon="1.312816">
        <ele>273.1</ele>
        <time>2019-06-16T13:41:34Z</time>
      </trkpt>
      <trkpt lat="43.399967" lon="1.312847">
        <ele>271.4</ele>
        <time>2019-06-16T13:41:51Z</time>
      </trkpt>
      <trkpt lat="43.399869" lon="1.312890">
        <ele>270.2</ele>
        <time>2019-06-16T13:42:08Z</time>
      </trkpt>
      <trkpt lat="43.399691" lon="1.312800">
        <ele>270.2</ele>
        <time>2019-06-16T13:42:25Z</time>
      </trkpt>
      <trkpt lat="43.399517" lon="1.312749">
        <ele>270.4</ele>
        <time>2019-06-16T13:42:41Z</time>
      </trkpt>
      <trkpt lat="43.399390" lon="1.312732">
        <ele>271.1</ele>
        <time>2019-06-16T13:42:55Z</time>
      </trkpt>
      <trkpt lat="43.399253" lon="1.312742">
        <ele>271.0</ele>
        <time>2019-06-16T13:43:11Z</time>
      </trkpt>
      <trkpt lat="43.399124" lon="1.312752">
        <ele>270.7</ele>
        <time>2019-06-16T13:43:23Z</time>
      </trkpt>
      <trkpt lat="43.399010" lon="1.312771">
        <ele>270.2</ele>
        <time>2019-06-16T13:43:40Z</time>
      </trkpt>
      <trkpt lat="43.398854" lon="1.312763">
        <ele>269.8</ele>
        <time>2019-06-16T13:43:57Z</time>
      </trkpt>
      <trkpt lat="43.398749" lon="1.312725">
        <ele>269.1</ele>
        <time>2019-06-16T13:44:43Z</time>
      </trkpt>
      <trkpt lat="43.398657" lon="1.312689">
        <ele>269.0</ele>
        <time>2019-06-16T13:44:56Z</time>
      </trkpt>
      <trkpt lat="43.398571" lon="1.312629">
        <ele>268.3</ele>
        <time>2019-06-16T13:45:10Z</time>
      </trkpt>
      <trkpt lat="43.398498" lon="1.312596">
        <ele>268.1</ele>
        <time>2019-06-16T13:46:29Z</time>
      </trkpt>
      <trkpt lat="43.398504" lon="1.312554">
        <ele>267.8</ele>
        <time>2019-06-16T13:46:51Z</time>
      </trkpt>
      <trkpt lat="43.398427" lon="1.312473">
        <ele>267.7</ele>
        <time>2019-06-16T13:47:30Z</time>
      </trkpt>
      <trkpt lat="43.398358" lon="1.312392">
        <ele>266.9</ele>
        <time>2019-06-16T13:47:40Z</time>
      </trkpt>
      <trkpt lat="43.398283" lon="1.312314">
        <ele>266.5</ele>
        <time>2019-06-16T13:47:49Z</time>
      </trkpt>
      <trkpt lat="43.398203" lon="1.312241">
        <ele>266.1</ele>
        <time>2019-06-16T13:47:59Z</time>
      </trkpt>
      <trkpt lat="43.398114" lon="1.312173">
        <ele>265.8</ele>
        <time>2019-06-16T13:48:08Z</time>
      </trkpt>
      <trkpt lat="43.398027" lon="1.312112">
        <ele>265.1</ele>
        <time>2019-06-16T13:48:16Z</time>
      </trkpt>
      <trkpt lat="43.397936" lon="1.312055">
        <ele>264.7</ele>
        <time>2019-06-16T13:48:25Z</time>
      </trkpt>
      <trkpt lat="43.397848" lon="1.312008">
        <ele>264.0</ele>
        <time>2019-06-16T13:48:34Z</time>
      </trkpt>
      <trkpt lat="43.397749" lon="1.311968">
        <ele>263.3</ele>
        <time>2019-06-16T13:48:43Z</time>
      </trkpt>
      <trkpt lat="43.397663" lon="1.311947">
        <ele>262.9</ele>
        <time>2019-06-16T13:48:51Z</time>
      </trkpt>
      <trkpt lat="43.397577" lon="1.311930">
        <ele>262.4</ele>
        <time>2019-06-16T13:48:59Z</time>
      </trkpt>
      <trkpt lat="43.397477" lon="1.311909">
        <ele>262.1</ele>
        <time>2019-06-16T13:49:08Z</time>
      </trkpt>
      <trkpt lat="43.397386" lon="1.311870">
        <ele>261.6</ele>
        <time>2019-06-16T13:49:16Z</time>
      </trkpt>
      <trkpt lat="43.397297" lon="1.311831">
        <ele>260.4</ele>
        <time>2019-06-16T13:49:24Z</time>
      </trkpt>
      <trkpt lat="43.397209" lon="1.311768">
        <ele>259.1</ele>
        <time>2019-06-16T13:49:33Z</time>
      </trkpt>
      <trkpt lat="43.397123" lon="1.311690">
        <ele>257.9</ele>
        <time>2019-06-16T13:49:42Z</time>
      </trkpt>
      <trkpt lat="43.397053" lon="1.311616">
        <ele>257.0</ele>
        <time>2019-06-16T13:49:50Z</time>
      </trkpt>
      <trkpt lat="43.396979" lon="1.311529">
        <ele>256.7</ele>
        <time>2019-06-16T13:49:58Z</time>
      </trkpt>
      <trkpt lat="43.396909" lon="1.311448">
        <ele>256.2</ele>
        <time>2019-06-16T13:50:06Z</time>
      </trkpt>
      <trkpt lat="43.396851" lon="1.311362">
        <ele>255.7</ele>
        <time>2019-06-16T13:50:14Z</time>
      </trkpt>
      <trkpt lat="43.396793" lon="1.311271">
        <ele>255.1</ele>
        <time>2019-06-16T13:50:22Z</time>
      </trkpt>
      <trkpt lat="43.396735" lon="1.311175">
        <ele>254.4</ele>
        <time>2019-06-16T13:50:29Z</time>
      </trkpt>
      <trkpt lat="43.396679" lon="1.311085">
        <ele>253.6</ele>
        <time>2019-06-16T13:50:37Z</time>
      </trkpt>
      <trkpt lat="43.396615" lon="1.310982">
        <ele>252.8</ele>
        <time>2019-06-16T13:50:45Z</time>
      </trkpt>
      <trkpt lat="43.396549" lon="1.310882">
        <ele>252.3</ele>
        <time>2019-06-16T13:50:53Z</time>
      </trkpt>
      <trkpt lat="43.396466" lon="1.310807">
        <ele>251.9</ele>
        <time>2019-06-16T13:51:02Z</time>
      </trkpt>
      <trkpt lat="43.396385" lon="1.310726">
        <ele>251.2</ele>
        <time>2019-06-16T13:51:11Z</time>
      </trkpt>
      <trkpt lat="43.396302" lon="1.310667">
        <ele>250.9</ele>
        <time>2019-06-16T13:51:19Z</time>
      </trkpt>
      <trkpt lat="43.396203" lon="1.310605">
        <ele>250.2</ele>
        <time>2019-06-16T13:51:28Z</time>
      </trkpt>
      <trkpt lat="43.396123" lon="1.310547">
        <ele>249.9</ele>
        <time>2019-06-16T13:51:36Z</time>
      </trkpt>
      <trkpt lat="43.396046" lon="1.310475">
        <ele>249.6</ele>
        <time>2019-06-16T13:51:45Z</time>
      </trkpt>
      <trkpt lat="43.395955" lon="1.310403">
        <ele>249.4</ele>
        <time>2019-06-16T13:51:54Z</time>
      </trkpt>
      <trkpt lat="43.395878" lon="1.310318">
        <ele>249.1</ele>
        <time>2019-06-16T13:52:03Z</time>
      </trkpt>
      <trkpt lat="43.395804" lon="1.310226">
        <ele>249.0</ele>
        <time>2019-06-16T13:52:12Z</time>
      </trkpt>
      <trkpt lat="43.395725" lon="1.310142">
        <ele>249.1</ele>
        <time>2019-06-16T13:52:21Z</time>
      </trkpt>
      <trkpt lat="43.395652" lon="1.310061">
        <ele>249.0</ele>
        <time>2019-06-16T13:52:29Z</time>
      </trkpt>
      <trkpt lat="43.395577" lon="1.309994">
        <ele>248.9</ele>
        <time>2019-06-16T13:52:37Z</time>
      </trkpt>
      <trkpt lat="43.395492" lon="1.309931">
        <ele>248.8</ele>
        <time>2019-06-16T13:52:45Z</time>
      </trkpt>
      <trkpt lat="43.395408" lon="1.309873">
        <ele>248.9</ele>
        <time>2019-06-16T13:52:53Z</time>
      </trkpt>
      <trkpt lat="43.395322" lon="1.309801">
        <ele>249.1</ele>
        <time>2019-06-16T13:53:01Z</time>
      </trkpt>
      <trkpt lat="43.395235" lon="1.309746">
        <ele>249.5</ele>
        <time>2019-06-16T13:53:10Z</time>
      </trkpt>
      <trkpt lat="43.395155" lon="1.309681">
        <ele>249.8</ele>
        <time>2019-06-16T13:53:18Z</time>
      </trkpt>
      <trkpt lat="43.395070" lon="1.309618">
        <ele>250.1</ele>
        <time>2019-06-16T13:53:26Z</time>
      </trkpt>
      <trkpt lat="43.394999" lon="1.309553">
        <ele>250.6</ele>
        <time>2019-06-16T13:53:35Z</time>
      </trkpt>
      <trkpt lat="43.394917" lon="1.309473">
        <ele>251.1</ele>
        <time>2019-06-16T13:53:44Z</time>
      </trkpt>
      <trkpt lat="43.394838" lon="1.309390">
        <ele>251.5</ele>
        <time>2019-06-16T13:53:53Z</time>
      </trkpt>
      <trkpt lat="43.394754" lon="1.309318">
        <ele>252.5</ele>
        <time>2019-06-16T13:54:03Z</time>
      </trkpt>
      <trkpt lat="43.394678" lon="1.309236">
        <ele>253.3</ele>
        <time>2019-06-16T13:54:12Z</time>
      </trkpt>
      <trkpt lat="43.394604" lon="1.309155">
        <ele>254.2</ele>
        <time>2019-06-16T13:54:21Z</time>
      </trkpt>
      <trkpt lat="43.394533" lon="1.309077">
        <ele>255.1</ele>
        <time>2019-06-16T13:54:30Z</time>
      </trkpt>
      <trkpt lat="43.394451" lon="1.309015">
        <ele>255.9</ele>
        <time>2019-06-16T13:54:40Z</time>
      </trkpt>
      <trkpt lat="43.394377" lon="1.308952">
        <ele>256.7</ele>
        <time>2019-06-16T13:55:28Z</time>
      </trkpt>
      <trkpt lat="43.394287" lon="1.308901">
        <ele>257.4</ele>
        <time>2019-06-16T13:55:51Z</time>
      </trkpt>
      <trkpt lat="43.394177" lon="1.308860">
        <ele>257.9</ele>
        <time>2019-06-16T13:56:01Z</time>
      </trkpt>
      <trkpt lat="43.394079" lon="1.308830">
        <ele>258.5</ele>
        <time>2019-06-16T13:56:11Z</time>
      </trkpt>
      <trkpt lat="43.393983" lon="1.308813">
        <ele>259.2</ele>
        <time>2019-06-16T13:56:22Z</time>
      </trkpt>
      <trkpt lat="43.393869" lon="1.308810">
        <ele>259.9</ele>
        <time>2019-06-16T13:56:33Z</time>
      </trkpt>
      <trkpt lat="43.393768" lon="1.308800">
        <ele>260.8</ele>
        <time>2019-06-16T13:56:44Z</time>
      </trkpt>
      <trkpt lat="43.393668" lon="1.308801">
        <ele>261.5</ele>
        <time>2019-06-16T13:56:53Z</time>
      </trkpt>
      <trkpt lat="43.393557" lon="1.308801">
        <ele>262.6</ele>
        <time>2019-06-16T13:57:05Z</time>
      </trkpt>
      <trkpt lat="43.393468" lon="1.308797">
        <ele>263.4</ele>
        <time>2019-06-16T13:57:14Z</time>
      </trkpt>
      <trkpt lat="43.393378" lon="1.308794">
        <ele>264.2</ele>
        <time>2019-06-16T13:57:24Z</time>
      </trkpt>
      <trkpt lat="43.393279" lon="1.308800">
        <ele>265.3</ele>
        <time>2019-06-16T13:57:34Z</time>
      </trkpt>
      <trkpt lat="43.393182" lon="1.308793">
        <ele>267.3</ele>
        <time>2019-06-16T13:57:49Z</time>
      </trkpt>
      <trkpt lat="43.393095" lon="1.308794">
        <ele>268.1</ele>
        <time>2019-06-16T13:58:00Z</time>
      </trkpt>
      <trkpt lat="43.392989" lon="1.308772">
        <ele>269.2</ele>
        <time>2019-06-16T13:58:10Z</time>
      </trkpt>
      <trkpt lat="43.392895" lon="1.308758">
        <ele>270.8</ele>
        <time>2019-06-16T13:58:21Z</time>
      </trkpt>
      <trkpt lat="43.392801" lon="1.308727">
        <ele>272.0</ele>
        <time>2019-06-16T13:58:31Z</time>
      </trkpt>
      <trkpt lat="43.392691" lon="1.308703">
        <ele>273.3</ele>
        <time>2019-06-16T13:58:42Z</time>
      </trkpt>
      <trkpt lat="43.392599" lon="1.308675">
        <ele>274.6</ele>
        <time>2019-06-16T13:58:53Z</time>
      </trkpt>
      <trkpt lat="43.392503" lon="1.308645">
        <ele>275.6</ele>
        <time>2019-06-16T13:59:03Z</time>
      </trkpt>
      <trkpt lat="43.392412" lon="1.308603">
        <ele>276.6</ele>
        <time>2019-06-16T13:59:13Z</time>
      </trkpt>
      <trkpt lat="43.392309" lon="1.308567">
        <ele>277.3</ele>
        <time>2019-06-16T13:59:23Z</time>
      </trkpt>
      <trkpt lat="43.392222" lon="1.308535">
        <ele>277.8</ele>
        <time>2019-06-16T13:59:32Z</time>
      </trkpt>
      <trkpt lat="43.392135" lon="1.308506">
        <ele>278.4</ele>
        <time>2019-06-16T13:59:42Z</time>
      </trkpt>
      <trkpt lat="43.392045" lon="1.308476">
        <ele>278.8</ele>
        <time>2019-06-16T13:59:52Z</time>
      </trkpt>
      <trkpt lat="43.391964" lon="1.308431">
        <ele>278.8</ele>
        <time>2019-06-16T14:00:06Z</time>
      </trkpt>
      <trkpt lat="43.391963" lon="1.308423">
        <ele>278.4</ele>
        <time>2019-06-16T14:01:12Z</time>
      </trkpt>
      <trkpt lat="43.391875" lon="1.308410">
        <ele>279.0</ele>
        <time>2019-06-16T14:03:03Z</time>
      </trkpt>
      <trkpt lat="43.391791" lon="1.308399">
        <ele>278.5</ele>
        <time>2019-06-16T14:03:18Z</time>
      </trkpt>
      <trkpt lat="43.391702" lon="1.308368">
        <ele>277.5</ele>
        <time>2019-06-16T14:03:28Z</time>
      </trkpt>
      <trkpt lat="43.391615" lon="1.308323">
        <ele>276.5</ele>
        <time>2019-06-16T14:03:38Z</time>
      </trkpt>
      <trkpt lat="43.391537" lon="1.308315">
        <ele>274.9</ele>
        <time>2019-06-16T14:04:05Z</time>
      </trkpt>
      <trkpt lat="43.391448" lon="1.308339">
        <ele>273.3</ele>
        <time>2019-06-16T14:04:19Z</time>
      </trkpt>
      <trkpt lat="43.391348" lon="1.308354">
        <ele>271.5</ele>
        <time>2019-06-16T14:04:31Z</time>
      </trkpt>
      <trkpt lat="43.391250" lon="1.308369">
        <ele>270.3</ele>
        <time>2019-06-16T14:04:41Z</time>
      </trkpt>
      <trkpt lat="43.391146" lon="1.308376">
        <ele>269.0</ele>
        <time>2019-06-16T14:04:53Z</time>
      </trkpt>
      <trkpt lat="43.391053" lon="1.308401">
        <ele>267.5</ele>
        <time>2019-06-16T14:05:06Z</time>
      </trkpt>
      <trkpt lat="43.390940" lon="1.308413">
        <ele>266.5</ele>
        <time>2019-06-16T14:05:16Z</time>
      </trkpt>
      <trkpt lat="43.390840" lon="1.308443">
        <ele>265.5</ele>
        <time>2019-06-16T14:05:24Z</time>
      </trkpt>
      <trkpt lat="43.390752" lon="1.308461">
        <ele>264.4</ele>
        <time>2019-06-16T14:05:35Z</time>
      </trkpt>
      <trkpt lat="43.390657" lon="1.308482">
        <ele>263.2</ele>
        <time>2019-06-16T14:05:45Z</time>
      </trkpt>
      <trkpt lat="43.390551" lon="1.308495">
        <ele>261.7</ele>
        <time>2019-06-16T14:05:55Z</time>
      </trkpt>
      <trkpt lat="43.390449" lon="1.308514">
        <ele>260.8</ele>
        <time>2019-06-16T14:06:05Z</time>
      </trkpt>
      <trkpt lat="43.390346" lon="1.308538">
        <ele>260.1</ele>
        <time>2019-06-16T14:06:15Z</time>
      </trkpt>
      <trkpt lat="43.390244" lon="1.308556">
        <ele>259.0</ele>
        <time>2019-06-16T14:06:24Z</time>
      </trkpt>
      <trkpt lat="43.390148" lon="1.308589">
        <ele>258.0</ele>
        <time>2019-06-16T14:06:33Z</time>
      </trkpt>
      <trkpt lat="43.390047" lon="1.308612">
        <ele>256.8</ele>
        <time>2019-06-16T14:06:43Z</time>
      </trkpt>
      <trkpt lat="43.389941" lon="1.308636">
        <ele>255.5</ele>
        <time>2019-06-16T14:06:53Z</time>
      </trkpt>
      <trkpt lat="43.389848" lon="1.308666">
        <ele>253.9</ele>
        <time>2019-06-16T14:07:03Z</time>
      </trkpt>
      <trkpt lat="43.389735" lon="1.308705">
        <ele>252.6</ele>
        <time>2019-06-16T14:07:13Z</time>
      </trkpt>
      <trkpt lat="43.389636" lon="1.308740">
        <ele>251.3</ele>
        <time>2019-06-16T14:07:22Z</time>
      </trkpt>
      <trkpt lat="43.389532" lon="1.308761">
        <ele>250.2</ele>
        <time>2019-06-16T14:07:31Z</time>
      </trkpt>
      <trkpt lat="43.389435" lon="1.308797">
        <ele>249.3</ele>
        <time>2019-06-16T14:07:39Z</time>
      </trkpt>
      <trkpt lat="43.389336" lon="1.308831">
        <ele>248.0</ele>
        <time>2019-06-16T14:07:48Z</time>
      </trkpt>
      <trkpt lat="43.389247" lon="1.308848">
        <ele>246.7</ele>
        <time>2019-06-16T14:07:56Z</time>
      </trkpt>
      <trkpt lat="43.389144" lon="1.308841">
        <ele>245.1</ele>
        <time>2019-06-16T14:08:06Z</time>
      </trkpt>
      <trkpt lat="43.389039" lon="1.308831">
        <ele>243.5</ele>
        <time>2019-06-16T14:08:18Z</time>
      </trkpt>
      <trkpt lat="43.388917" lon="1.308805">
        <ele>241.9</ele>
        <time>2019-06-16T14:08:30Z</time>
      </trkpt>
      <trkpt lat="43.388784" lon="1.308793">
        <ele>240.5</ele>
        <time>2019-06-16T14:08:42Z</time>
      </trkpt>
      <trkpt lat="43.388653" lon="1.308774">
        <ele>239.3</ele>
        <time>2019-06-16T14:08:54Z</time>
      </trkpt>
      <trkpt lat="43.388523" lon="1.308764">
        <ele>237.9</ele>
        <time>2019-06-16T14:09:05Z</time>
      </trkpt>
      <trkpt lat="43.388383" lon="1.308737">
        <ele>236.4</ele>
        <time>2019-06-16T14:09:18Z</time>
      </trkpt>
      <trkpt lat="43.388253" lon="1.308726">
        <ele>235.6</ele>
        <time>2019-06-16T14:09:28Z</time>
      </trkpt>
      <trkpt lat="43.388143" lon="1.308719">
        <ele>235.0</ele>
        <time>2019-06-16T14:09:37Z</time>
      </trkpt>
      <trkpt lat="43.388032" lon="1.308701">
        <ele>234.3</ele>
        <time>2019-06-16T14:09:48Z</time>
      </trkpt>
      <trkpt lat="43.387914" lon="1.308681">
        <ele>233.6</ele>
        <time>2019-06-16T14:09:59Z</time>
      </trkpt>
      <trkpt lat="43.387801" lon="1.308650">
        <ele>232.9</ele>
        <time>2019-06-16T14:10:09Z</time>
      </trkpt>
      <trkpt lat="43.387687" lon="1.308630">
        <ele>232.3</ele>
        <time>2019-06-16T14:10:19Z</time>
      </trkpt>
      <trkpt lat="43.387566" lon="1.308598">
        <ele>231.4</ele>
        <time>2019-06-16T14:10:30Z</time>
      </trkpt>
      <trkpt lat="43.387448" lon="1.308564">
        <ele>230.9</ele>
        <time>2019-06-16T14:10:40Z</time>
      </trkpt>
      <trkpt lat="43.387335" lon="1.308528">
        <ele>230.3</ele>
        <time>2019-06-16T14:10:49Z</time>
      </trkpt>
      <trkpt lat="43.387240" lon="1.308503">
        <ele>229.7</ele>
        <time>2019-06-16T14:11:00Z</time>
      </trkpt>
      <trkpt lat="43.387174" lon="1.308467">
        <ele>228.9</ele>
        <time>2019-06-16T14:11:25Z</time>
      </trkpt>
      <trkpt lat="43.387096" lon="1.308396">
        <ele>228.5</ele>
        <time>2019-06-16T14:11:37Z</time>
      </trkpt>
      <trkpt lat="43.387044" lon="1.308276">
        <ele>227.9</ele>
        <time>2019-06-16T14:11:45Z</time>
      </trkpt>
      <trkpt lat="43.387005" lon="1.308161">
        <ele>227.5</ele>
        <time>2019-06-16T14:11:53Z</time>
      </trkpt>
      <trkpt lat="43.386974" lon="1.308024">
        <ele>226.9</ele>
        <time>2019-06-16T14:12:02Z</time>
      </trkpt>
      <trkpt lat="43.386984" lon="1.307895">
        <ele>226.5</ele>
        <time>2019-06-16T14:12:10Z</time>
      </trkpt>
      <trkpt lat="43.387000" lon="1.307751">
        <ele>226.2</ele>
        <time>2019-06-16T14:12:18Z</time>
      </trkpt>
      <trkpt lat="43.387041" lon="1.307634">
        <ele>226.0</ele>
        <time>2019-06-16T14:12:26Z</time>
      </trkpt>
      <trkpt lat="43.387066" lon="1.307489">
        <ele>225.7</ele>
        <time>2019-06-16T14:12:34Z</time>
      </trkpt>
      <trkpt lat="43.387099" lon="1.307349">
        <ele>225.4</ele>
        <time>2019-06-16T14:12:43Z</time>
      </trkpt>
      <trkpt lat="43.387128" lon="1.307223">
        <ele>225.2</ele>
        <time>2019-06-16T14:12:51Z</time>
      </trkpt>
      <trkpt lat="43.387168" lon="1.307087">
        <ele>224.8</ele>
        <time>2019-06-16T14:13:00Z</time>
      </trkpt>
      <trkpt lat="43.387198" lon="1.306954">
        <ele>224.7</ele>
        <time>2019-06-16T14:13:08Z</time>
      </trkpt>
      <trkpt lat="43.387230" lon="1.306824">
        <ele>224.4</ele>
        <time>2019-06-16T14:13:16Z</time>
      </trkpt>
      <trkpt lat="43.387264" lon="1.306691">
        <ele>224.1</ele>
        <time>2019-06-16T14:13:25Z</time>
      </trkpt>
      <trkpt lat="43.387300" lon="1.306565">
        <ele>224.0</ele>
        <time>2019-06-16T14:13:33Z</time>
      </trkpt>
      <trkpt lat="43.387323" lon="1.306435">
        <ele>223.9</ele>
        <time>2019-06-16T14:13:41Z</time>
      </trkpt>
      <trkpt lat="43.387360" lon="1.306314">
        <ele>223.8</ele>
        <time>2019-06-16T14:13:49Z</time>
      </trkpt>
      <trkpt lat="43.387393" lon="1.306185">
        <ele>223.4</ele>
        <time>2019-06-16T14:13:58Z</time>
      </trkpt>
      <trkpt lat="43.387417" lon="1.306057">
        <ele>223.2</ele>
        <time>2019-06-16T14:14:06Z</time>
      </trkpt>
      <trkpt lat="43.387447" lon="1.305939">
        <ele>222.9</ele>
        <time>2019-06-16T14:14:15Z</time>
      </trkpt>
      <trkpt lat="43.387476" lon="1.305800">
        <ele>222.5</ele>
        <time>2019-06-16T14:14:24Z</time>
      </trkpt>
      <trkpt lat="43.387513" lon="1.305678">
        <ele>222.0</ele>
        <time>2019-06-16T14:14:33Z</time>
      </trkpt>
      <trkpt lat="43.387562" lon="1.305541">
        <ele>221.4</ele>
        <time>2019-06-16T14:14:42Z</time>
      </trkpt>
      <trkpt lat="43.387607" lon="1.305410">
        <ele>220.7</ele>
        <time>2019-06-16T14:14:50Z</time>
      </trkpt>
      <trkpt lat="43.387649" lon="1.305286">
        <ele>219.9</ele>
        <time>2019-06-16T14:14:58Z</time>
      </trkpt>
      <trkpt lat="43.387687" lon="1.305173">
        <ele>219.1</ele>
        <time>2019-06-16T14:15:07Z</time>
      </trkpt>
      <trkpt lat="43.387730" lon="1.305063">
        <ele>218.2</ele>
        <time>2019-06-16T14:15:16Z</time>
      </trkpt>
      <trkpt lat="43.387772" lon="1.304930">
        <ele>217.4</ele>
        <time>2019-06-16T14:15:24Z</time>
      </trkpt>
      <trkpt lat="43.387820" lon="1.304814">
        <ele>216.6</ele>
        <time>2019-06-16T14:15:33Z</time>
      </trkpt>
      <trkpt lat="43.387862" lon="1.304687">
        <ele>215.9</ele>
        <time>2019-06-16T14:15:42Z</time>
      </trkpt>
      <trkpt lat="43.387907" lon="1.304554">
        <ele>215.3</ele>
        <time>2019-06-16T14:15:50Z</time>
      </trkpt>
      <trkpt lat="43.387944" lon="1.304433">
        <ele>214.6</ele>
        <time>2019-06-16T14:15:58Z</time>
      </trkpt>
      <trkpt lat="43.388015" lon="1.304326">
        <ele>213.8</ele>
        <time>2019-06-16T14:16:06Z</time>
      </trkpt>
      <trkpt lat="43.388081" lon="1.304224">
        <ele>212.9</ele>
        <time>2019-06-16T14:16:14Z</time>
      </trkpt>
      <trkpt lat="43.388143" lon="1.304131">
        <ele>212.3</ele>
        <time>2019-06-16T14:16:22Z</time>
      </trkpt>
      <trkpt lat="43.388212" lon="1.304059">
        <ele>211.7</ele>
        <time>2019-06-16T14:16:30Z</time>
      </trkpt>
      <trkpt lat="43.388288" lon="1.303974">
        <ele>211.1</ele>
        <time>2019-06-16T14:16:39Z</time>
      </trkpt>
      <trkpt lat="43.388370" lon="1.303921">
        <ele>210.9</ele>
        <time>2019-06-16T14:16:46Z</time>
      </trkpt>
      <trkpt lat="43.388473" lon="1.303857">
        <ele>210.0</ele>
        <time>2019-06-16T14:16:54Z</time>
      </trkpt>
      <trkpt lat="43.388571" lon="1.303845">
        <ele>209.6</ele>
        <time>2019-06-16T14:17:02Z</time>
      </trkpt>
      <trkpt lat="43.388659" lon="1.303864">
        <ele>209.4</ele>
        <time>2019-06-16T14:17:09Z</time>
      </trkpt>
      <trkpt lat="43.388755" lon="1.303873">
        <ele>209.1</ele>
        <time>2019-06-16T14:17:17Z</time>
      </trkpt>
      <trkpt lat="43.388859" lon="1.303914">
        <ele>208.8</ele>
        <time>2019-06-16T14:17:25Z</time>
      </trkpt>
      <trkpt lat="43.388953" lon="1.303917">
        <ele>208.4</ele>
        <time>2019-06-16T14:17:34Z</time>
      </trkpt>
      <trkpt lat="43.389053" lon="1.303947">
        <ele>208.0</ele>
        <time>2019-06-16T14:17:43Z</time>
      </trkpt>
      <trkpt lat="43.389147" lon="1.303968">
        <ele>207.6</ele>
        <time>2019-06-16T14:17:50Z</time>
      </trkpt>
      <trkpt lat="43.389246" lon="1.303967">
        <ele>206.9</ele>
        <time>2019-06-16T14:17:59Z</time>
      </trkpt>
      <trkpt lat="43.389344" lon="1.303975">
        <ele>205.9</ele>
        <time>2019-06-16T14:18:08Z</time>
      </trkpt>
      <trkpt lat="43.389460" lon="1.303952">
        <ele>205.1</ele>
        <time>2019-06-16T14:18:17Z</time>
      </trkpt>
      <trkpt lat="43.389559" lon="1.303925">
        <ele>204.5</ele>
        <time>2019-06-16T14:18:24Z</time>
      </trkpt>
      <trkpt lat="43.389669" lon="1.303881">
        <ele>203.8</ele>
        <time>2019-06-16T14:18:32Z</time>
      </trkpt>
      <trkpt lat="43.389752" lon="1.303834">
        <ele>203.3</ele>
        <time>2019-06-16T14:18:40Z</time>
      </trkpt>
      <trkpt lat="43.389848" lon="1.303809">
        <ele>202.6</ele>
        <time>2019-06-16T14:18:49Z</time>
      </trkpt>
      <trkpt lat="43.389948" lon="1.303771">
        <ele>201.7</ele>
        <time>2019-06-16T14:18:58Z</time>
      </trkpt>
      <trkpt lat="43.390047" lon="1.303730">
        <ele>200.9</ele>
        <time>2019-06-16T14:19:06Z</time>
      </trkpt>
      <trkpt lat="43.390137" lon="1.303673">
        <ele>199.9</ele>
        <time>2019-06-16T14:19:14Z</time>
      </trkpt>
      <trkpt lat="43.390225" lon="1.303646">
        <ele>199.5</ele>
        <time>2019-06-16T14:19:21Z</time>
      </trkpt>
      <trkpt lat="43.390301" lon="1.303593">
        <ele>198.7</ele>
        <time>2019-06-16T14:19:29Z</time>
      </trkpt>
      <trkpt lat="43.390395" lon="1.303566">
        <ele>198.1</ele>
        <time>2019-06-16T14:19:37Z</time>
      </trkpt>
      <trkpt lat="43.390489" lon="1.303537">
        <ele>197.5</ele>
        <time>2019-06-16T14:19:45Z</time>
      </trkpt>
      <trkpt lat="43.390586" lon="1.303485">
        <ele>196.7</ele>
        <time>2019-06-16T14:19:53Z</time>
      </trkpt>
      <trkpt lat="43.390685" lon="1.303445">
        <ele>195.8</ele>
        <time>2019-06-16T14:20:01Z</time>
      </trkpt>
      <trkpt lat="43.390779" lon="1.303394">
        <ele>195.0</ele>
        <time>2019-06-16T14:20:10Z</time>
      </trkpt>
      <trkpt lat="43.390863" lon="1.303331">
        <ele>194.1</ele>
        <time>2019-06-16T14:20:27Z</time>
      </trkpt>
      <trkpt lat="43.390954" lon="1.303284">
        <ele>193.6</ele>
        <time>2019-06-16T14:20:36Z</time>
      </trkpt>
      <trkpt lat="43.391045" lon="1.303205">
        <ele>192.8</ele>
        <time>2019-06-16T14:20:46Z</time>
      </trkpt>
      <trkpt lat="43.391138" lon="1.303102">
        <ele>191.7</ele>
        <time>2019-06-16T14:20:55Z</time>
      </trkpt>
      <trkpt lat="43.391195" lon="1.302993">
        <ele>191.0</ele>
        <time>2019-06-16T14:21:04Z</time>
      </trkpt>
      <trkpt lat="43.391261" lon="1.302888">
        <ele>190.3</ele>
        <time>2019-06-16T14:21:12Z</time>
      </trkpt>
      <trkpt lat="43.391315" lon="1.302771">
        <ele>189.1</ele>
        <time>2019-06-16T14:21:21Z</time>
      </trkpt>
      <trkpt lat="43.391378" lon="1.302655">
        <ele>188.2</ele>
        <time>2019-06-16T14:21:30Z</time>
      </trkpt>
      <trkpt lat="43.391420" lon="1.302539">
        <ele>187.5</ele>
        <time>2019-06-16T14:21:37Z</time>
      </trkpt>
      <trkpt lat="43.391477" lon="1.302442">
        <ele>186.9</ele>
        <time>2019-06-16T14:21:45Z</time>
      </trkpt>
      <trkpt lat="43.391543" lon="1.302344">
        <ele>186.4</ele>
        <time>2019-06-16T14:21:53Z</time>
      </trkpt>
      <trkpt lat="43.391613" lon="1.302258">
        <ele>185.8</ele>
        <time>2019-06-16T14:22:02Z</time>
      </trkpt>
      <trkpt lat="43.391686" lon="1.302191">
        <ele>185.4</ele>
        <time>2019-06-16T14:22:11Z</time>
      </trkpt>
      <trkpt lat="43.391771" lon="1.302136">
        <ele>185.1</ele>
        <time>2019-06-16T14:22:22Z</time>
      </trkpt>
      <trkpt lat="43.391842" lon="1.302041">
        <ele>184.7</ele>
        <time>2019-06-16T14:22:30Z</time>
      </trkpt>
      <trkpt lat="43.391900" lon="1.301939">
        <ele>184.4</ele>
        <time>2019-06-16T14:22:38Z</time>
      </trkpt>
      <trkpt lat="43.391951" lon="1.301831">
        <ele>184.4</ele>
        <time>2019-06-16T14:22:46Z</time>
      </trkpt>
      <trkpt lat="43.392011" lon="1.301727">
        <ele>184.0</ele>
        <time>2019-06-16T14:22:55Z</time>
      </trkpt>
      <trkpt lat="43.392072" lon="1.301618">
        <ele>183.8</ele>
        <time>2019-06-16T14:23:04Z</time>
      </trkpt>
      <trkpt lat="43.392131" lon="1.301509">
        <ele>183.6</ele>
        <time>2019-06-16T14:23:12Z</time>
      </trkpt>
      <trkpt lat="43.392196" lon="1.301420">
        <ele>183.4</ele>
        <time>2019-06-16T14:23:20Z</time>
      </trkpt>
      <trkpt lat="43.392261" lon="1.301343">
        <ele>183.3</ele>
        <time>2019-06-16T14:23:29Z</time>
      </trkpt>
      <trkpt lat="43.392290" lon="1.301209">
        <ele>183.1</ele>
        <time>2019-06-16T14:23:41Z</time>
      </trkpt>
      <trkpt lat="43.392311" lon="1.301083">
        <ele>182.5</ele>
        <time>2019-06-16T14:23:50Z</time>
      </trkpt>
      <trkpt lat="43.392340" lon="1.300974">
        <ele>182.0</ele>
        <time>2019-06-16T14:24:09Z</time>
      </trkpt>
      <trkpt lat="43.392366" lon="1.300828">
        <ele>182.1</ele>
        <time>2019-06-16T14:24:21Z</time>
      </trkpt>
      <trkpt lat="43.392415" lon="1.300752">
        <ele>182.1</ele>
        <time>2019-06-16T14:24:38Z</time>
      </trkpt>
      <trkpt lat="43.392479" lon="1.300702">
        <ele>182.4</ele>
        <time>2019-06-16T14:24:58Z</time>
      </trkpt>
      <trkpt lat="43.392561" lon="1.300708">
        <ele>182.5</ele>
        <time>2019-06-16T14:25:10Z</time>
      </trkpt>
      <trkpt lat="43.392610" lon="1.300826">
        <ele>182.5</ele>
        <time>2019-06-16T14:32:37Z</time>
      </trkpt>
      <trkpt lat="43.392702" lon="1.300903">
        <ele>182.1</ele>
        <time>2019-06-16T14:32:56Z</time>
      </trkpt>
      <trkpt lat="43.392751" lon="1.301038">
        <ele>182.0</ele>
        <time>2019-06-16T14:33:12Z</time>
      </trkpt>
      <trkpt lat="43.392827" lon="1.301130">
        <ele>181.5</ele>
        <time>2019-06-16T14:33:29Z</time>
      </trkpt>
      <trkpt lat="43.392918" lon="1.301034">
        <ele>181.2</ele>
        <time>2019-06-16T14:33:43Z</time>
      </trkpt>
      <trkpt lat="43.392991" lon="1.300940">
        <ele>181.0</ele>
        <time>2019-06-16T14:33:54Z</time>
      </trkpt>
      <trkpt lat="43.393060" lon="1.300842">
        <ele>180.8</ele>
        <time>2019-06-16T14:34:03Z</time>
      </trkpt>
      <trkpt lat="43.393129" lon="1.300756">
        <ele>180.4</ele>
        <time>2019-06-16T14:34:12Z</time>
      </trkpt>
      <trkpt lat="43.393211" lon="1.300688">
        <ele>180.0</ele>
        <time>2019-06-16T14:34:21Z</time>
      </trkpt>
      <trkpt lat="43.393305" lon="1.300618">
        <ele>179.1</ele>
        <time>2019-06-16T14:34:32Z</time>
      </trkpt>
      <trkpt lat="43.393400" lon="1.300579">
        <ele>178.1</ele>
        <time>2019-06-16T14:34:41Z</time>
      </trkpt>
      <trkpt lat="43.393490" lon="1.300548">
        <ele>177.3</ele>
        <time>2019-06-16T14:34:52Z</time>
      </trkpt>
      <trkpt lat="43.393568" lon="1.300472">
        <ele>176.4</ele>
        <time>2019-06-16T14:35:16Z</time>
      </trkpt>
      <trkpt lat="43.393649" lon="1.300402">
        <ele>175.7</ele>
        <time>2019-06-16T14:35:26Z</time>
      </trkpt>
      <trkpt lat="43.393724" lon="1.300334">
        <ele>174.8</ele>
        <time>2019-06-16T14:35:35Z</time>
      </trkpt>
      <trkpt lat="43.393798" lon="1.300270">
        <ele>174.1</ele>
        <time>2019-06-16T14:35:45Z</time>
      </trkpt>
      <trkpt lat="43.393876" lon="1.300203">
        <ele>173.5</ele>
        <time>2019-06-16T14:35:54Z</time>
      </trkpt>
      <trkpt lat="43.393958" lon="1.300136">
        <ele>173.3</ele>
        <time>2019-06-16T14:36:03Z</time>
      </trkpt>
      <trkpt lat="43.394040" lon="1.300074">
        <ele>172.7</ele>
        <time>2019-06-16T14:36:12Z</time>
      </trkpt>
      <trkpt lat="43.394128" lon="1.300020">
        <ele>172.6</ele>
        <time>2019-06-16T14:36:21Z</time>
      </trkpt>
      <trkpt lat="43.394219" lon="1.299976">
        <ele>172.6</ele>
        <time>2019-06-16T14:36:30Z</time>
      </trkpt>
      <trkpt lat="43.394313" lon="1.299942">
        <ele>172.4</ele>
        <time>2019-06-16T14:36:39Z</time>
      </trkpt>
      <trkpt lat="43.394400" lon="1.299906">
        <ele>172.3</ele>
        <time>2019-06-16T14:36:48Z</time>
      </trkpt>
      <trkpt lat="43.394495" lon="1.299869">
        <ele>172.0</ele>
        <time>2019-06-16T14:36:57Z</time>
      </trkpt>
      <trkpt lat="43.394580" lon="1.299825">
        <ele>171.6</ele>
        <time>2019-06-16T14:37:05Z</time>
      </trkpt>
      <trkpt lat="43.394646" lon="1.299824">
        <ele>171.2</ele>
        <time>2019-06-16T14:37:42Z</time>
      </trkpt>
      <trkpt lat="43.394738" lon="1.299747">
        <ele>171.2</ele>
        <time>2019-06-16T14:38:04Z</time>
      </trkpt>
      <trkpt lat="43.394827" lon="1.299675">
        <ele>171.0</ele>
        <time>2019-06-16T14:38:13Z</time>
      </trkpt>
      <trkpt lat="43.394909" lon="1.299606">
        <ele>170.7</ele>
        <time>2019-06-16T14:38:21Z</time>
      </trkpt>
      <trkpt lat="43.394983" lon="1.299524">
        <ele>170.5</ele>
        <time>2019-06-16T14:38:31Z</time>
      </trkpt>
      <trkpt lat="43.395063" lon="1.299472">
        <ele>170.4</ele>
        <time>2019-06-16T14:38:57Z</time>
      </trkpt>
      <trkpt lat="43.395108" lon="1.299392">
        <ele>170.2</ele>
        <time>2019-06-16T14:39:33Z</time>
      </trkpt>
      <trkpt lat="43.395188" lon="1.299358">
        <ele>170.2</ele>
        <time>2019-06-16T14:41:20Z</time>
      </trkpt>
      <trkpt lat="43.395285" lon="1.299333">
        <ele>169.8</ele>
        <time>2019-06-16T14:41:31Z</time>
      </trkpt>
      <trkpt lat="43.395371" lon="1.299253">
        <ele>169.6</ele>
        <time>2019-06-16T14:41:40Z</time>
      </trkpt>
      <trkpt lat="43.395458" lon="1.299170">
        <ele>169.3</ele>
        <time>2019-06-16T14:41:49Z</time>
      </trkpt>
      <trkpt lat="43.395560" lon="1.299136">
        <ele>169.3</ele>
        <time>2019-06-16T14:41:59Z</time>
      </trkpt>
      <trkpt lat="43.395669" lon="1.299129">
        <ele>169.0</ele>
        <time>2019-06-16T14:42:09Z</time>
      </trkpt>
      <trkpt lat="43.395754" lon="1.299220">
        <ele>168.9</ele>
        <time>2019-06-16T14:42:22Z</time>
      </trkpt>
      <trkpt lat="43.395824" lon="1.299280">
        <ele>168.4</ele>
        <time>2019-06-16T14:42:43Z</time>
      </trkpt>
      <trkpt lat="43.395861" lon="1.299437">
        <ele>169.0</ele>
        <time>2019-06-16T14:42:55Z</time>
      </trkpt>
      <trkpt lat="43.395893" lon="1.299590">
        <ele>169.1</ele>
        <time>2019-06-16T14:43:05Z</time>
      </trkpt>
      <trkpt lat="43.395920" lon="1.299759">
        <ele>169.1</ele>
        <time>2019-06-16T14:43:19Z</time>
      </trkpt>
      <trkpt lat="43.395966" lon="1.299936">
        <ele>169.2</ele>
        <time>2019-06-16T14:43:31Z</time>
      </trkpt>
      <trkpt lat="43.396013" lon="1.300109">
        <ele>168.9</ele>
        <time>2019-06-16T14:43:43Z</time>
      </trkpt>
      <trkpt lat="43.396050" lon="1.300249">
        <ele>168.9</ele>
        <time>2019-06-16T14:43:55Z</time>
      </trkpt>
      <trkpt lat="43.396083" lon="1.300407">
        <ele>168.8</ele>
        <time>2019-06-16T14:44:05Z</time>
      </trkpt>
      <trkpt lat="43.396120" lon="1.300554">
        <ele>168.8</ele>
        <time>2019-06-16T14:44:15Z</time>
      </trkpt>
      <trkpt lat="43.396119" lon="1.300721">
        <ele>168.4</ele>
        <time>2019-06-16T14:44:30Z</time>
      </trkpt>
      <trkpt lat="43.396128" lon="1.300861">
        <ele>168.1</ele>
        <time>2019-06-16T14:44:45Z</time>
      </trkpt>
      <trkpt lat="43.396152" lon="1.301021">
        <ele>168.0</ele>
        <time>2019-06-16T14:45:00Z</time>
      </trkpt>
      <trkpt lat="43.396226" lon="1.301143">
        <ele>167.6</ele>
        <time>2019-06-16T14:45:14Z</time>
      </trkpt>
      <trkpt lat="43.396264" lon="1.301310">
        <ele>166.8</ele>
        <time>2019-06-16T14:45:30Z</time>
      </trkpt>
      <trkpt lat="43.396306" lon="1.301528">
        <ele>166.4</ele>
        <time>2019-06-16T14:45:46Z</time>
      </trkpt>
      <trkpt lat="43.396346" lon="1.301673">
        <ele>165.0</ele>
        <time>2019-06-16T14:46:04Z</time>
      </trkpt>
      <trkpt lat="43.396336" lon="1.301860">
        <ele>164.7</ele>
        <time>2019-06-16T14:46:22Z</time>
      </trkpt>
      <trkpt lat="43.396336" lon="1.301997">
        <ele>164.9</ele>
        <time>2019-06-16T14:46:43Z</time>
      </trkpt>
      <trkpt lat="43.396372" lon="1.302130">
        <ele>163.6</ele>
        <time>2019-06-16T14:46:55Z</time>
      </trkpt>
      <trkpt lat="43.396378" lon="1.302282">
        <ele>164.0</ele>
        <time>2019-06-16T14:47:08Z</time>
      </trkpt>
      <trkpt lat="43.396357" lon="1.302410">
        <ele>163.9</ele>
        <time>2019-06-16T14:47:19Z</time>
      </trkpt>
      <trkpt lat="43.396342" lon="1.302529">
        <ele>163.9</ele>
        <time>2019-06-16T14:47:30Z</time>
      </trkpt>
      <trkpt lat="43.396294" lon="1.302659">
        <ele>163.9</ele>
        <time>2019-06-16T14:47:41Z</time>
      </trkpt>
      <trkpt lat="43.396269" lon="1.302769">
        <ele>164.2</ele>
        <time>2019-06-16T14:47:52Z</time>
      </trkpt>
      <trkpt lat="43.396225" lon="1.302889">
        <ele>164.3</ele>
        <time>2019-06-16T14:48:04Z</time>
      </trkpt>
      <trkpt lat="43.396160" lon="1.303005">
        <ele>164.0</ele>
        <time>2019-06-16T14:48:15Z</time>
      </trkpt>
      <trkpt lat="43.396132" lon="1.303212">
        <ele>163.9</ele>
        <time>2019-06-16T14:48:49Z</time>
      </trkpt>
      <trkpt lat="43.396102" lon="1.303353">
        <ele>163.9</ele>
        <time>2019-06-16T14:49:02Z</time>
      </trkpt>
      <trkpt lat="43.396044" lon="1.303497">
        <ele>164.2</ele>
        <time>2019-06-16T14:49:15Z</time>
      </trkpt>
      <trkpt lat="43.396000" lon="1.303636">
        <ele>164.3</ele>
        <time>2019-06-16T14:49:32Z</time>
      </trkpt>
      <trkpt lat="43.396005" lon="1.303821">
        <ele>163.9</ele>
        <time>2019-06-16T14:49:48Z</time>
      </trkpt>
      <trkpt lat="43.396010" lon="1.303969">
        <ele>163.1</ele>
        <time>2019-06-16T14:50:02Z</time>
      </trkpt>
      <trkpt lat="43.396004" lon="1.304133">
        <ele>163.2</ele>
        <time>2019-06-16T14:50:21Z</time>
      </trkpt>
      <trkpt lat="43.396007" lon="1.304287">
        <ele>162.8</ele>
        <time>2019-06-16T14:50:38Z</time>
      </trkpt>
      <trkpt lat="43.396024" lon="1.304484">
        <ele>162.4</ele>
        <time>2019-06-16T14:51:32Z</time>
      </trkpt>
      <trkpt lat="43.395938" lon="1.304578">
        <ele>163.9</ele>
        <time>2019-06-16T14:51:56Z</time>
      </trkpt>
      <trkpt lat="43.395852" lon="1.304657">
        <ele>167.6</ele>
        <time>2019-06-16T14:52:15Z</time>
      </trkpt>
      <trkpt lat="43.395850" lon="1.304829">
        <ele>168.3</ele>
        <time>2019-06-16T14:52:33Z</time>
      </trkpt>
      <trkpt lat="43.395871" lon="1.305048">
        <ele>169.5</ele>
        <time>2019-06-16T14:52:54Z</time>
      </trkpt>
      <trkpt lat="43.395913" lon="1.305256">
        <ele>169.9</ele>
        <time>2019-06-16T14:53:08Z</time>
      </trkpt>
      <trkpt lat="43.395979" lon="1.305416">
        <ele>170.2</ele>
        <time>2019-06-16T14:53:25Z</time>
      </trkpt>
      <trkpt lat="43.396018" lon="1.305600">
        <ele>172.6</ele>
        <time>2019-06-16T14:53:46Z</time>
      </trkpt>
      <trkpt lat="43.396063" lon="1.305790">
        <ele>173.3</ele>
        <time>2019-06-16T14:54:01Z</time>
      </trkpt>
      <trkpt lat="43.396086" lon="1.305976">
        <ele>173.4</ele>
        <time>2019-06-16T14:54:17Z</time>
      </trkpt>
      <trkpt lat="43.396159" lon="1.306096">
        <ele>174.7</ele>
        <time>2019-06-16T14:54:33Z</time>
      </trkpt>
      <trkpt lat="43.396269" lon="1.306174">
        <ele>172.9</ele>
        <time>2019-06-16T14:54:50Z</time>
      </trkpt>
      <trkpt lat="43.396366" lon="1.306255">
        <ele>170.4</ele>
        <time>2019-06-16T14:55:07Z</time>
      </trkpt>
      <trkpt lat="43.396504" lon="1.306381">
        <ele>169.0</ele>
        <time>2019-06-16T14:55:46Z</time>
      </trkpt>
      <trkpt lat="43.396590" lon="1.306504">
        <ele>171.2</ele>
        <time>2019-06-16T14:56:00Z</time>
      </trkpt>
      <trkpt lat="43.396664" lon="1.306626">
        <ele>173.8</ele>
        <time>2019-06-16T14:56:16Z</time>
      </trkpt>
      <trkpt lat="43.396708" lon="1.306759">
        <ele>174.1</ele>
        <time>2019-06-16T14:56:30Z</time>
      </trkpt>
      <trkpt lat="43.396692" lon="1.306878">
        <ele>172.8</ele>
        <time>2019-06-16T14:56:48Z</time>
      </trkpt>
      <trkpt lat="43.396722" lon="1.307113">
        <ele>172.6</ele>
        <time>2019-06-16T14:57:07Z</time>
      </trkpt>
      <trkpt lat="43.396773" lon="1.307245">
        <ele>172.7</ele>
        <time>2019-06-16T14:57:48Z</time>
      </trkpt>
      <trkpt lat="43.396875" lon="1.307199">
        <ele>173.8</ele>
        <time>2019-06-16T14:58:08Z</time>
      </trkpt>
      <trkpt lat="43.397006" lon="1.307201">
        <ele>174.7</ele>
        <time>2019-06-16T14:58:21Z</time>
      </trkpt>
      <trkpt lat="43.397114" lon="1.307296">
        <ele>174.4</ele>
        <time>2019-06-16T14:58:35Z</time>
      </trkpt>
      <trkpt lat="43.397206" lon="1.307430">
        <ele>172.3</ele>
        <time>2019-06-16T14:58:51Z</time>
      </trkpt>
      <trkpt lat="43.397305" lon="1.307378">
        <ele>170.4</ele>
        <time>2019-06-16T14:59:03Z</time>
      </trkpt>
      <trkpt lat="43.397396" lon="1.307394">
        <ele>167.9</ele>
        <time>2019-06-16T14:59:25Z</time>
      </trkpt>
      <trkpt lat="43.397510" lon="1.307450">
        <ele>165.4</ele>
        <time>2019-06-16T14:59:42Z</time>
      </trkpt>
      <trkpt lat="43.397538" lon="1.307587">
        <ele>164.4</ele>
        <time>2019-06-16T14:59:59Z</time>
      </trkpt>
      <trkpt lat="43.397566" lon="1.307737">
        <ele>165.8</ele>
        <time>2019-06-16T15:00:17Z</time>
      </trkpt>
      <trkpt lat="43.397640" lon="1.307704">
        <ele>165.0</ele>
        <time>2019-06-16T15:00:41Z</time>
      </trkpt>
      <trkpt lat="43.397743" lon="1.307704">
        <ele>164.0</ele>
        <time>2019-06-16T15:00:58Z</time>
      </trkpt>
      <trkpt lat="43.397825" lon="1.307760">
        <ele>164.6</ele>
        <time>2019-06-16T15:01:18Z</time>
      </trkpt>
      <trkpt lat="43.397829" lon="1.307879">
        <ele>166.7</ele>
        <time>2019-06-16T15:01:53Z</time>
      </trkpt>
      <trkpt lat="43.397828" lon="1.307882">
        <ele>166.4</ele>
        <time>2019-06-16T15:02:37Z</time>
      </trkpt>
      <trkpt lat="43.397827" lon="1.307912">
        <ele>166.3</ele>
        <time>2019-06-16T15:03:34Z</time>
      </trkpt>
      <trkpt lat="43.397925" lon="1.308005">
        <ele>168.3</ele>
        <time>2019-06-16T15:03:55Z</time>
      </trkpt>
      <trkpt lat="43.398030" lon="1.308087">
        <ele>171.6</ele>
        <time>2019-06-16T15:04:16Z</time>
      </trkpt>
      <trkpt lat="43.398141" lon="1.308105">
        <ele>171.2</ele>
        <time>2019-06-16T15:04:31Z</time>
      </trkpt>
      <trkpt lat="43.398255" lon="1.308131">
        <ele>171.9</ele>
        <time>2019-06-16T15:04:44Z</time>
      </trkpt>
      <trkpt lat="43.398371" lon="1.308200">
        <ele>173.6</ele>
        <time>2019-06-16T15:05:01Z</time>
      </trkpt>
      <trkpt lat="43.398471" lon="1.308276">
        <ele>175.3</ele>
        <time>2019-06-16T15:05:18Z</time>
      </trkpt>
      <trkpt lat="43.398551" lon="1.308422">
        <ele>174.8</ele>
        <time>2019-06-16T15:05:34Z</time>
      </trkpt>
      <trkpt lat="43.398652" lon="1.308561">
        <ele>174.8</ele>
        <time>2019-06-16T15:05:51Z</time>
      </trkpt>
      <trkpt lat="43.398776" lon="1.308591">
        <ele>175.3</ele>
        <time>2019-06-16T15:06:07Z</time>
      </trkpt>
      <trkpt lat="43.398892" lon="1.308564">
        <ele>175.8</ele>
        <time>2019-06-16T15:06:25Z</time>
      </trkpt>
      <trkpt lat="43.399035" lon="1.308594">
        <ele>175.8</ele>
        <time>2019-06-16T15:06:39Z</time>
      </trkpt>
      <trkpt lat="43.399139" lon="1.308721">
        <ele>176.1</ele>
        <time>2019-06-16T15:07:00Z</time>
      </trkpt>
      <trkpt lat="43.399270" lon="1.308767">
        <ele>176.8</ele>
        <time>2019-06-16T15:07:15Z</time>
      </trkpt>
      <trkpt lat="43.399369" lon="1.308745">
        <ele>177.3</ele>
        <time>2019-06-16T15:07:31Z</time>
      </trkpt>
      <trkpt lat="43.399463" lon="1.308642">
        <ele>177.3</ele>
        <time>2019-06-16T15:07:43Z</time>
      </trkpt>
      <trkpt lat="43.399574" lon="1.308580">
        <ele>178.1</ele>
        <time>2019-06-16T15:07:57Z</time>
      </trkpt>
      <trkpt lat="43.399698" lon="1.308527">
        <ele>177.6</ele>
        <time>2019-06-16T15:08:13Z</time>
      </trkpt>
      <trkpt lat="43.399830" lon="1.308563">
        <ele>178.4</ele>
        <time>2019-06-16T15:08:28Z</time>
      </trkpt>
      <trkpt lat="43.399928" lon="1.308632">
        <ele>177.9</ele>
        <time>2019-06-16T15:08:43Z</time>
      </trkpt>
      <trkpt lat="43.400033" lon="1.308714">
        <ele>175.0</ele>
        <time>2019-06-16T15:08:58Z</time>
      </trkpt>
      <trkpt lat="43.400146" lon="1.308671">
        <ele>173.1</ele>
        <time>2019-06-16T15:09:10Z</time>
      </trkpt>
      <trkpt lat="43.400255" lon="1.308617">
        <ele>170.2</ele>
        <time>2019-06-16T15:09:22Z</time>
      </trkpt>
      <trkpt lat="43.400396" lon="1.308553">
        <ele>167.2</ele>
        <time>2019-06-16T15:09:36Z</time>
      </trkpt>
      <trkpt lat="43.400503" lon="1.308488">
        <ele>165.0</ele>
        <time>2019-06-16T15:09:51Z</time>
      </trkpt>
      <trkpt lat="43.400597" lon="1.308512">
        <ele>164.4</ele>
        <time>2019-06-16T15:10:20Z</time>
      </trkpt>
      <trkpt lat="43.400737" lon="1.308413">
        <ele>163.9</ele>
        <time>2019-06-16T15:10:32Z</time>
      </trkpt>
      <trkpt lat="43.400825" lon="1.308257">
        <ele>163.6</ele>
        <time>2019-06-16T15:10:43Z</time>
      </trkpt>
      <trkpt lat="43.400911" lon="1.308146">
        <ele>162.8</ele>
        <time>2019-06-16T15:10:59Z</time>
      </trkpt>
      <trkpt lat="43.401044" lon="1.308174">
        <ele>162.9</ele>
        <time>2019-06-16T15:11:20Z</time>
      </trkpt>
      <trkpt lat="43.401176" lon="1.308213">
        <ele>162.6</ele>
        <time>2019-06-16T15:11:36Z</time>
      </trkpt>
      <trkpt lat="43.401310" lon="1.308262">
        <ele>162.3</ele>
        <time>2019-06-16T15:11:48Z</time>
      </trkpt>
      <trkpt lat="43.401455" lon="1.308307">
        <ele>162.1</ele>
        <time>2019-06-16T15:12:01Z</time>
      </trkpt>
      <trkpt lat="43.401603" lon="1.308336">
        <ele>162.2</ele>
        <time>2019-06-16T15:12:12Z</time>
      </trkpt>
      <trkpt lat="43.401733" lon="1.308363">
        <ele>162.0</ele>
        <time>2019-06-16T15:12:24Z</time>
      </trkpt>
      <trkpt lat="43.401866" lon="1.308404">
        <ele>161.8</ele>
        <time>2019-06-16T15:12:36Z</time>
      </trkpt>
      <trkpt lat="43.401985" lon="1.308402">
        <ele>161.9</ele>
        <time>2019-06-16T15:12:47Z</time>
      </trkpt>
      <trkpt lat="43.402124" lon="1.308427">
        <ele>161.7</ele>
        <time>2019-06-16T15:13:00Z</time>
      </trkpt>
      <trkpt lat="43.402254" lon="1.308451">
        <ele>161.9</ele>
        <time>2019-06-16T15:13:12Z</time>
      </trkpt>
      <trkpt lat="43.402433" lon="1.308476">
        <ele>162.1</ele>
        <time>2019-06-16T15:13:27Z</time>
      </trkpt>
      <trkpt lat="43.402607" lon="1.308513">
        <ele>162.3</ele>
        <time>2019-06-16T15:13:41Z</time>
      </trkpt>
      <trkpt lat="43.402743" lon="1.308517">
        <ele>162.3</ele>
        <time>2019-06-16T15:13:52Z</time>
      </trkpt>
      <trkpt lat="43.402854" lon="1.308533">
        <ele>162.4</ele>
        <time>2019-06-16T15:14:03Z</time>
      </trkpt>
      <trkpt lat="43.402953" lon="1.308560">
        <ele>162.4</ele>
        <time>2019-06-16T15:14:15Z</time>
      </trkpt>
      <trkpt lat="43.403090" lon="1.308630">
        <ele>162.3</ele>
        <time>2019-06-16T15:14:26Z</time>
      </trkpt>
      <trkpt lat="43.403202" lon="1.308665">
        <ele>162.4</ele>
        <time>2019-06-16T15:14:37Z</time>
      </trkpt>
      <trkpt lat="43.403328" lon="1.308687">
        <ele>162.1</ele>
        <time>2019-06-16T15:14:50Z</time>
      </trkpt>
      <trkpt lat="43.403487" lon="1.308743">
        <ele>162.1</ele>
        <time>2019-06-16T15:15:03Z</time>
      </trkpt>
      <trkpt lat="43.403621" lon="1.308779">
        <ele>162.0</ele>
        <time>2019-06-16T15:15:14Z</time>
      </trkpt>
      <trkpt lat="43.403743" lon="1.308795">
        <ele>161.8</ele>
        <time>2019-06-16T15:15:23Z</time>
      </trkpt>
      <trkpt lat="43.403839" lon="1.308779">
        <ele>162.1</ele>
        <time>2019-06-16T15:15:32Z</time>
      </trkpt>
      <trkpt lat="43.403959" lon="1.308805">
        <ele>162.1</ele>
        <time>2019-06-16T15:15:44Z</time>
      </trkpt>
      <trkpt lat="43.404054" lon="1.308775">
        <ele>161.9</ele>
        <time>2019-06-16T15:16:03Z</time>
      </trkpt>
      <trkpt lat="43.404238" lon="1.308778">
        <ele>162.0</ele>
        <time>2019-06-16T15:18:08Z</time>
      </trkpt>
      <trkpt lat="43.404347" lon="1.308788">
        <ele>161.9</ele>
        <time>2019-06-16T15:18:18Z</time>
      </trkpt>
      <trkpt lat="43.404446" lon="1.308769">
        <ele>161.7</ele>
        <time>2019-06-16T15:18:31Z</time>
      </trkpt>
      <trkpt lat="43.404564" lon="1.308765">
        <ele>161.3</ele>
        <time>2019-06-16T15:18:44Z</time>
      </trkpt>
      <trkpt lat="43.404680" lon="1.308796">
        <ele>161.4</ele>
        <time>2019-06-16T15:18:55Z</time>
      </trkpt>
      <trkpt lat="43.404848" lon="1.308789">
        <ele>161.1</ele>
        <time>2019-06-16T15:19:08Z</time>
      </trkpt>
      <trkpt lat="43.404943" lon="1.308805">
        <ele>161.1</ele>
        <time>2019-06-16T15:19:18Z</time>
      </trkpt>
      <trkpt lat="43.405065" lon="1.308800">
        <ele>161.4</ele>
        <time>2019-06-16T15:19:28Z</time>
      </trkpt>
      <trkpt lat="43.405160" lon="1.308812">
        <ele>161.5</ele>
        <time>2019-06-16T15:19:37Z</time>
      </trkpt>
      <trkpt lat="43.405274" lon="1.308769">
        <ele>161.4</ele>
        <time>2019-06-16T15:19:47Z</time>
      </trkpt>
      <trkpt lat="43.405398" lon="1.308711">
        <ele>161.6</ele>
        <time>2019-06-16T15:19:58Z</time>
      </trkpt>
      <trkpt lat="43.405506" lon="1.308669">
        <ele>161.7</ele>
        <time>2019-06-16T15:20:07Z</time>
      </trkpt>
      <trkpt lat="43.405586" lon="1.308665">
        <ele>161.4</ele>
        <time>2019-06-16T15:21:07Z</time>
      </trkpt>
      <trkpt lat="43.405700" lon="1.308676">
        <ele>161.5</ele>
        <time>2019-06-16T15:21:16Z</time>
      </trkpt>
      <trkpt lat="43.405819" lon="1.308683">
        <ele>161.4</ele>
        <time>2019-06-16T15:21:27Z</time>
      </trkpt>
      <trkpt lat="43.405922" lon="1.308656">
        <ele>161.8</ele>
        <time>2019-06-16T15:21:38Z</time>
      </trkpt>
      <trkpt lat="43.406131" lon="1.308629">
        <ele>171.6</ele>
        <time>2019-06-16T15:22:15Z</time>
      </trkpt>
      <trkpt lat="43.406304" lon="1.308633">
        <ele>171.4</ele>
        <time>2019-06-16T15:22:43Z</time>
      </trkpt>
      <trkpt lat="43.406553" lon="1.308686">
        <ele>171.3</ele>
        <time>2019-06-16T15:23:25Z</time>
      </trkpt>
      <trkpt lat="43.406803" lon="1.308723">
        <ele>171.8</ele>
        <time>2019-06-16T15:24:06Z</time>
      </trkpt>
      <trkpt lat="43.406946" lon="1.308800">
        <ele>172.6</ele>
        <time>2019-06-16T15:24:32Z</time>
      </trkpt>
      <trkpt lat="43.407062" lon="1.308849">
        <ele>173.2</ele>
        <time>2019-06-16T15:24:52Z</time>
      </trkpt>
      <trkpt lat="43.407136" lon="1.308747">
        <ele>172.8</ele>
        <time>2019-06-16T15:25:09Z</time>
      </trkpt>
      <trkpt lat="43.407231" lon="1.308576">
        <ele>172.3</ele>
        <time>2019-06-16T15:25:35Z</time>
      </trkpt>
      <trkpt lat="43.407359" lon="1.308490">
        <ele>172.3</ele>
        <time>2019-06-16T15:25:58Z</time>
      </trkpt>
      <trkpt lat="43.407513" lon="1.308408">
        <ele>172.3</ele>
        <time>2019-06-16T15:26:25Z</time>
      </trkpt>
      <trkpt lat="43.407757" lon="1.308436">
        <ele>172.6</ele>
        <time>2019-06-16T15:27:05Z</time>
      </trkpt>
      <trkpt lat="43.407986" lon="1.308498">
        <ele>173.0</ele>
        <time>2019-06-16T15:27:44Z</time>
      </trkpt>
      <trkpt lat="43.408185" lon="1.308400">
        <ele>172.4</ele>
        <time>2019-06-16T15:28:19Z</time>
      </trkpt>
      <trkpt lat="43.408289" lon="1.308171">
        <ele>171.4</ele>
        <time>2019-06-16T15:28:51Z</time>
      </trkpt>
      <trkpt lat="43.408393" lon="1.308003">
        <ele>170.9</ele>
        <time>2019-06-16T15:29:17Z</time>
      </trkpt>
      <trkpt lat="43.408494" lon="1.307778">
        <ele>170.1</ele>
        <time>2019-06-16T15:29:49Z</time>
      </trkpt>
      <trkpt lat="43.408630" lon="1.307717">
        <ele>169.9</ele>
        <time>2019-06-16T15:30:13Z</time>
      </trkpt>
      <trkpt lat="43.408741" lon="1.307658">
        <ele>159.5</ele>
        <time>2019-06-16T15:30:38Z</time>
      </trkpt>
      <trkpt lat="43.408770" lon="1.307659">
        <ele>160.2</ele>
        <time>2019-06-16T15:31:41Z</time>
      </trkpt>
      <trkpt lat="43.408872" lon="1.307675">
        <ele>160.0</ele>
        <time>2019-06-16T15:31:54Z</time>
      </trkpt>
      <trkpt lat="43.408979" lon="1.307679">
        <ele>160.4</ele>
        <time>2019-06-16T15:32:06Z</time>
      </trkpt>
      <trkpt lat="43.409101" lon="1.307726">
        <ele>160.4</ele>
        <time>2019-06-16T15:32:20Z</time>
      </trkpt>
      <trkpt lat="43.409240" lon="1.307800">
        <ele>160.8</ele>
        <time>2019-06-16T15:32:33Z</time>
      </trkpt>
      <trkpt lat="43.409362" lon="1.307898">
        <ele>160.9</ele>
        <time>2019-06-16T15:32:47Z</time>
      </trkpt>
      <trkpt lat="43.409480" lon="1.307930">
        <ele>160.7</ele>
        <time>2019-06-16T15:32:59Z</time>
      </trkpt>
      <trkpt lat="43.409599" lon="1.307876">
        <ele>160.7</ele>
        <time>2019-06-16T15:33:12Z</time>
      </trkpt>
      <trkpt lat="43.409697" lon="1.307833">
        <ele>160.6</ele>
        <time>2019-06-16T15:33:21Z</time>
      </trkpt>
      <trkpt lat="43.409791" lon="1.307742">
        <ele>160.3</ele>
        <time>2019-06-16T15:33:32Z</time>
      </trkpt>
      <trkpt lat="43.409891" lon="1.307717">
        <ele>160.4</ele>
        <time>2019-06-16T15:33:43Z</time>
      </trkpt>
      <trkpt lat="43.409999" lon="1.307697">
        <ele>160.1</ele>
        <time>2019-06-16T15:33:54Z</time>
      </trkpt>
      <trkpt lat="43.410102" lon="1.307655">
        <ele>159.8</ele>
        <time>2019-06-16T15:34:04Z</time>
      </trkpt>
      <trkpt lat="43.410211" lon="1.307587">
        <ele>159.6</ele>
        <time>2019-06-16T15:34:15Z</time>
      </trkpt>
      <trkpt lat="43.410298" lon="1.307512">
        <ele>159.5</ele>
        <time>2019-06-16T15:34:26Z</time>
      </trkpt>
      <trkpt lat="43.410391" lon="1.307462">
        <ele>159.0</ele>
        <time>2019-06-16T15:34:40Z</time>
      </trkpt>
      <trkpt lat="43.410524" lon="1.307406">
        <ele>158.5</ele>
        <time>2019-06-16T15:34:52Z</time>
      </trkpt>
      <trkpt lat="43.410627" lon="1.307371">
        <ele>158.1</ele>
        <time>2019-06-16T15:35:02Z</time>
      </trkpt>
      <trkpt lat="43.410750" lon="1.307402">
        <ele>157.6</ele>
        <time>2019-06-16T15:35:17Z</time>
      </trkpt>
      <trkpt lat="43.410860" lon="1.307462">
        <ele>157.9</ele>
        <time>2019-06-16T15:35:31Z</time>
      </trkpt>
      <trkpt lat="43.410989" lon="1.307474">
        <ele>157.7</ele>
        <time>2019-06-16T15:35:43Z</time>
      </trkpt>
      <trkpt lat="43.411116" lon="1.307491">
        <ele>157.4</ele>
        <time>2019-06-16T15:35:59Z</time>
      </trkpt>
      <trkpt lat="43.411240" lon="1.307450">
        <ele>157.1</ele>
        <time>2019-06-16T15:36:16Z</time>
      </trkpt>
      <trkpt lat="43.411431" lon="1.307446">
        <ele>157.3</ele>
        <time>2019-06-16T15:36:29Z</time>
      </trkpt>
      <trkpt lat="43.411547" lon="1.307451">
        <ele>157.1</ele>
        <time>2019-06-16T15:36:39Z</time>
      </trkpt>
      <trkpt lat="43.411679" lon="1.307510">
        <ele>157.1</ele>
        <time>2019-06-16T15:36:53Z</time>
      </trkpt>
      <trkpt lat="43.411838" lon="1.307540">
        <ele>157.4</ele>
        <time>2019-06-16T15:37:11Z</time>
      </trkpt>
      <trkpt lat="43.411939" lon="1.307545">
        <ele>157.3</ele>
        <time>2019-06-16T15:37:27Z</time>
      </trkpt>
      <trkpt lat="43.412083" lon="1.307612">
        <ele>157.1</ele>
        <time>2019-06-16T15:37:46Z</time>
      </trkpt>
      <trkpt lat="43.412211" lon="1.307677">
        <ele>156.6</ele>
        <time>2019-06-16T15:38:01Z</time>
      </trkpt>
      <trkpt lat="43.412217" lon="1.307668">
        <ele>157.7</ele>
        <time>2019-06-16T15:40:00Z</time>
      </trkpt>
      <trkpt lat="43.412376" lon="1.307771">
        <ele>158.1</ele>
        <time>2019-06-16T15:40:15Z</time>
      </trkpt>
      <trkpt lat="43.412478" lon="1.307894">
        <ele>158.6</ele>
        <time>2019-06-16T15:40:30Z</time>
      </trkpt>
      <trkpt lat="43.412581" lon="1.308016">
        <ele>158.8</ele>
        <time>2019-06-16T15:40:47Z</time>
      </trkpt>
      <trkpt lat="43.412682" lon="1.308179">
        <ele>157.7</ele>
        <time>2019-06-16T15:41:06Z</time>
      </trkpt>
      <trkpt lat="43.412744" lon="1.308271">
        <ele>157.8</ele>
        <time>2019-06-16T15:41:20Z</time>
      </trkpt>
      <trkpt lat="43.412839" lon="1.308263">
        <ele>157.8</ele>
        <time>2019-06-16T15:41:37Z</time>
      </trkpt>
      <trkpt lat="43.412935" lon="1.308360">
        <ele>158.1</ele>
        <time>2019-06-16T15:41:53Z</time>
      </trkpt>
      <trkpt lat="43.412994" lon="1.308460">
        <ele>158.7</ele>
        <time>2019-06-16T15:42:08Z</time>
      </trkpt>
      <trkpt lat="43.412991" lon="1.308606">
        <ele>161.2</ele>
        <time>2019-06-16T15:42:24Z</time>
      </trkpt>
      <trkpt lat="43.412964" lon="1.308743">
        <ele>163.0</ele>
        <time>2019-06-16T15:42:38Z</time>
      </trkpt>
      <trkpt lat="43.412904" lon="1.308859">
        <ele>163.9</ele>
        <time>2019-06-16T15:42:51Z</time>
      </trkpt>
      <trkpt lat="43.412846" lon="1.308965">
        <ele>165.6</ele>
        <time>2019-06-16T15:43:02Z</time>
      </trkpt>
      <trkpt lat="43.412772" lon="1.309087">
        <ele>168.9</ele>
        <time>2019-06-16T15:43:44Z</time>
      </trkpt>
      <trkpt lat="43.412651" lon="1.309052">
        <ele>169.0</ele>
        <time>2019-06-16T15:43:59Z</time>
      </trkpt>
      <trkpt lat="43.412540" lon="1.309031">
        <ele>168.7</ele>
        <time>2019-06-16T15:44:11Z</time>
      </trkpt>
      <trkpt lat="43.412442" lon="1.308994">
        <ele>168.5</ele>
        <time>2019-06-16T15:44:20Z</time>
      </trkpt>
      <trkpt lat="43.412353" lon="1.308937">
        <ele>168.1</ele>
        <time>2019-06-16T15:44:29Z</time>
      </trkpt>
      <trkpt lat="43.412258" lon="1.308854">
        <ele>167.7</ele>
        <time>2019-06-16T15:44:38Z</time>
      </trkpt>
      <trkpt lat="43.412186" lon="1.308772">
        <ele>167.5</ele>
        <time>2019-06-16T15:44:43Z</time>
      </trkpt>
      <trkpt lat="43.412110" lon="1.308705">
        <ele>167.2</ele>
        <time>2019-06-16T15:44:49Z</time>
      </trkpt>
      <trkpt lat="43.412027" lon="1.308638">
        <ele>166.9</ele>
        <time>2019-06-16T15:44:56Z</time>
      </trkpt>
      <trkpt lat="43.411939" lon="1.308568">
        <ele>166.9</ele>
        <time>2019-06-16T15:45:03Z</time>
      </trkpt>
      <trkpt lat="43.411857" lon="1.308508">
        <ele>167.0</ele>
        <time>2019-06-16T15:45:10Z</time>
      </trkpt>
      <trkpt lat="43.411776" lon="1.308485">
        <ele>167.1</ele>
        <time>2019-06-16T15:45:18Z</time>
      </trkpt>
      <trkpt lat="43.411699" lon="1.308453">
        <ele>167.3</ele>
        <time>2019-06-16T15:45:25Z</time>
      </trkpt>
      <trkpt lat="43.411621" lon="1.308449">
        <ele>167.3</ele>
        <time>2019-06-16T15:45:32Z</time>
      </trkpt>
      <trkpt lat="43.411567" lon="1.308516">
        <ele>167.7</ele>
        <time>2019-06-16T15:45:41Z</time>
      </trkpt>
      <trkpt lat="43.411555" lon="1.308648">
        <ele>168.2</ele>
        <time>2019-06-16T15:45:50Z</time>
      </trkpt>
      <trkpt lat="43.411555" lon="1.308789">
        <ele>168.9</ele>
        <time>2019-06-16T15:46:00Z</time>
      </trkpt>
      <trkpt lat="43.411529" lon="1.308914">
        <ele>169.6</ele>
        <time>2019-06-16T15:46:08Z</time>
      </trkpt>
      <trkpt lat="43.411496" lon="1.309044">
        <ele>170.1</ele>
        <time>2019-06-16T15:46:17Z</time>
      </trkpt>
      <trkpt lat="43.411491" lon="1.309185">
        <ele>170.8</ele>
        <time>2019-06-16T15:46:26Z</time>
      </trkpt>
      <trkpt lat="43.411562" lon="1.309289">
        <ele>171.3</ele>
        <time>2019-06-16T15:46:36Z</time>
      </trkpt>
      <trkpt lat="43.411647" lon="1.309373">
        <ele>171.8</ele>
        <time>2019-06-16T15:46:47Z</time>
      </trkpt>
      <trkpt lat="43.411680" lon="1.309395">
        <ele>164.8</ele>
        <time>2019-06-16T15:46:51Z</time>
      </trkpt>
    </trkseg>
  </trk>
</gpx>

